<?xml version="1.0" encoding="UTF-8" standalone="no" ?>
<gpx xmlns="http://www.topografix.com/GPX/1/1" xmlns:xsi="http://www.w3.org/2001/XMLSchema-instance" xsi:schemaLocation="http://www.topografix.com/GPX/1/1 http://www.topografix.com/GPX/1/1/gpx.xsd" version="1.1" creator="VisuGPX - https://www.visugpx.com">
  <metadata>
    <name>L'Aiguille Verte du Chinaillon (Bornes 74)</name>
    <desc><![CDATA[Départ de Samance (Le Chinaillon)
Photos et commentaires sur : [url]http://www.photosrandos.fr[/url]]]></desc>
  </metadata>
  <trk>
    <name><![CDATA[18 janv. 2019 à 09:39:25]]></name>
    <cmt><![CDATA[18 janv. 2019 à 09:39:25]]></cmt>
    <trkseg>
      <trkpt lat="45.97611" lon="6.45565">
        <ele>1366</ele>
        <time>2019-01-18T08:40:46Z</time>
      </trkpt>
      <trkpt lat="45.97615" lon="6.45565">
        <ele>1366</ele>
        <time>2019-01-18T08:40:57Z</time>
      </trkpt>
      <trkpt lat="45.9762" lon="6.45562">
        <ele>1366</ele>
        <time>2019-01-18T08:41:34Z</time>
      </trkpt>
      <trkpt lat="45.97619" lon="6.45556">
        <ele>1366</ele>
        <time>2019-01-18T08:42:40Z</time>
      </trkpt>
      <trkpt lat="45.9762" lon="6.45545">
        <ele>1366</ele>
        <time>2019-01-18T08:44:27Z</time>
      </trkpt>
      <trkpt lat="45.97622" lon="6.45537">
        <ele>1366</ele>
        <time>2019-01-18T08:44:35Z</time>
      </trkpt>
      <trkpt lat="45.97617" lon="6.45518">
        <ele>1366</ele>
        <time>2019-01-18T08:44:56Z</time>
      </trkpt>
      <trkpt lat="45.97612" lon="6.45505">
        <ele>1367</ele>
        <time>2019-01-18T08:45:08Z</time>
      </trkpt>
      <trkpt lat="45.9761" lon="6.45496">
        <ele>1368</ele>
        <time>2019-01-18T08:45:18Z</time>
      </trkpt>
      <trkpt lat="45.97605" lon="6.45478">
        <ele>1370</ele>
        <time>2019-01-18T08:45:36Z</time>
      </trkpt>
      <trkpt lat="45.97603" lon="6.45463">
        <ele>1372</ele>
        <time>2019-01-18T08:45:47Z</time>
      </trkpt>
      <trkpt lat="45.97602" lon="6.45456">
        <ele>1372</ele>
        <time>2019-01-18T08:45:52Z</time>
      </trkpt>
      <trkpt lat="45.97603" lon="6.45448">
        <ele>1373</ele>
        <time>2019-01-18T08:46:03Z</time>
      </trkpt>
      <trkpt lat="45.97602" lon="6.45436">
        <ele>1375</ele>
        <time>2019-01-18T08:46:27Z</time>
      </trkpt>
      <trkpt lat="45.97608" lon="6.45434">
        <ele>1376</ele>
        <time>2019-01-18T08:46:38Z</time>
      </trkpt>
      <trkpt lat="45.97605" lon="6.45421">
        <ele>1378</ele>
        <time>2019-01-18T08:46:56Z</time>
      </trkpt>
      <trkpt lat="45.97596" lon="6.45404">
        <ele>1381</ele>
        <time>2019-01-18T08:47:23Z</time>
      </trkpt>
      <trkpt lat="45.97594" lon="6.45395">
        <ele>1382</ele>
        <time>2019-01-18T08:47:32Z</time>
      </trkpt>
      <trkpt lat="45.9759" lon="6.45387">
        <ele>1385</ele>
        <time>2019-01-18T08:47:50Z</time>
      </trkpt>
      <trkpt lat="45.97588" lon="6.45374">
        <ele>1384</ele>
        <time>2019-01-18T08:48:02Z</time>
      </trkpt>
      <trkpt lat="45.9759" lon="6.45367">
        <ele>1385</ele>
        <time>2019-01-18T08:48:10Z</time>
      </trkpt>
      <trkpt lat="45.97597" lon="6.45358">
        <ele>1385</ele>
        <time>2019-01-18T08:48:28Z</time>
      </trkpt>
      <trkpt lat="45.976" lon="6.45348">
        <ele>1386</ele>
        <time>2019-01-18T08:48:40Z</time>
      </trkpt>
      <trkpt lat="45.97603" lon="6.45332">
        <ele>1388</ele>
        <time>2019-01-18T08:48:54Z</time>
      </trkpt>
      <trkpt lat="45.976" lon="6.4532">
        <ele>1391</ele>
        <time>2019-01-18T08:49:06Z</time>
      </trkpt>
      <trkpt lat="45.97599" lon="6.45313">
        <ele>1392</ele>
        <time>2019-01-18T08:49:12Z</time>
      </trkpt>
      <trkpt lat="45.97592" lon="6.45303">
        <ele>1394</ele>
        <time>2019-01-18T08:49:35Z</time>
      </trkpt>
      <trkpt lat="45.97594" lon="6.4529">
        <ele>1397</ele>
        <time>2019-01-18T08:49:59Z</time>
      </trkpt>
      <trkpt lat="45.9758" lon="6.45257">
        <ele>1401</ele>
        <time>2019-01-18T08:50:36Z</time>
      </trkpt>
      <trkpt lat="45.97573" lon="6.45245">
        <ele>1402</ele>
        <time>2019-01-18T08:50:50Z</time>
      </trkpt>
      <trkpt lat="45.9757" lon="6.45239">
        <ele>1402</ele>
        <time>2019-01-18T08:50:55Z</time>
      </trkpt>
      <trkpt lat="45.97567" lon="6.45232">
        <ele>1403</ele>
        <time>2019-01-18T08:51:02Z</time>
      </trkpt>
      <trkpt lat="45.97564" lon="6.45211">
        <ele>1403</ele>
        <time>2019-01-18T08:51:39Z</time>
      </trkpt>
      <trkpt lat="45.97564" lon="6.45205">
        <ele>1404</ele>
        <time>2019-01-18T08:51:44Z</time>
      </trkpt>
      <trkpt lat="45.97561" lon="6.45192">
        <ele>1407</ele>
        <time>2019-01-18T08:52:20Z</time>
      </trkpt>
      <trkpt lat="45.97555" lon="6.4517">
        <ele>1411</ele>
        <time>2019-01-18T08:52:53Z</time>
      </trkpt>
      <trkpt lat="45.97556" lon="6.45161">
        <ele>1412</ele>
        <time>2019-01-18T08:53:00Z</time>
      </trkpt>
      <trkpt lat="45.97553" lon="6.45154">
        <ele>1412</ele>
        <time>2019-01-18T08:53:07Z</time>
      </trkpt>
      <trkpt lat="45.97556" lon="6.45144">
        <ele>1414</ele>
        <time>2019-01-18T08:53:26Z</time>
      </trkpt>
      <trkpt lat="45.97557" lon="6.45138">
        <ele>1415</ele>
        <time>2019-01-18T08:53:36Z</time>
      </trkpt>
      <trkpt lat="45.97556" lon="6.45129">
        <ele>1416</ele>
        <time>2019-01-18T08:53:40Z</time>
      </trkpt>
      <trkpt lat="45.97555" lon="6.45123">
        <ele>1416</ele>
        <time>2019-01-18T08:53:47Z</time>
      </trkpt>
      <trkpt lat="45.97541" lon="6.45109">
        <ele>1420</ele>
        <time>2019-01-18T08:54:15Z</time>
      </trkpt>
      <trkpt lat="45.97535" lon="6.45101">
        <ele>1420</ele>
        <time>2019-01-18T08:54:25Z</time>
      </trkpt>
      <trkpt lat="45.97529" lon="6.45096">
        <ele>1421</ele>
        <time>2019-01-18T08:54:36Z</time>
      </trkpt>
      <trkpt lat="45.97526" lon="6.45084">
        <ele>1425</ele>
        <time>2019-01-18T08:55:13Z</time>
      </trkpt>
      <trkpt lat="45.97523" lon="6.45073">
        <ele>1426</ele>
        <time>2019-01-18T08:55:32Z</time>
      </trkpt>
      <trkpt lat="45.9752" lon="6.45065">
        <ele>1428</ele>
        <time>2019-01-18T08:55:46Z</time>
      </trkpt>
      <trkpt lat="45.97519" lon="6.45057">
        <ele>1429</ele>
        <time>2019-01-18T08:56:00Z</time>
      </trkpt>
      <trkpt lat="45.97519" lon="6.45049">
        <ele>1430</ele>
        <time>2019-01-18T08:56:05Z</time>
      </trkpt>
      <trkpt lat="45.97515" lon="6.45045">
        <ele>1431</ele>
        <time>2019-01-18T08:56:10Z</time>
      </trkpt>
      <trkpt lat="45.97523" lon="6.45043">
        <ele>1433</ele>
        <time>2019-01-18T08:56:34Z</time>
      </trkpt>
      <trkpt lat="45.97522" lon="6.45036">
        <ele>1438</ele>
        <time>2019-01-18T08:56:52Z</time>
      </trkpt>
      <trkpt lat="45.97527" lon="6.4503">
        <ele>1440</ele>
        <time>2019-01-18T08:57:34Z</time>
      </trkpt>
      <trkpt lat="45.97527" lon="6.45023">
        <ele>1442</ele>
        <time>2019-01-18T08:57:46Z</time>
      </trkpt>
      <trkpt lat="45.97532" lon="6.45025">
        <ele>1443</ele>
        <time>2019-01-18T08:57:52Z</time>
      </trkpt>
      <trkpt lat="45.97536" lon="6.45021">
        <ele>1443</ele>
        <time>2019-01-18T08:57:57Z</time>
      </trkpt>
      <trkpt lat="45.9754" lon="6.45017">
        <ele>1442</ele>
        <time>2019-01-18T08:58:25Z</time>
      </trkpt>
      <trkpt lat="45.97544" lon="6.45016">
        <ele>1442</ele>
        <time>2019-01-18T08:58:54Z</time>
      </trkpt>
      <trkpt lat="45.97547" lon="6.45012">
        <ele>1441</ele>
        <time>2019-01-18T09:01:12Z</time>
      </trkpt>
      <trkpt lat="45.97552" lon="6.45006">
        <ele>1446</ele>
        <time>2019-01-18T09:04:45Z</time>
      </trkpt>
      <trkpt lat="45.97554" lon="6.45">
        <ele>1446</ele>
        <time>2019-01-18T09:04:49Z</time>
      </trkpt>
      <trkpt lat="45.97556" lon="6.4499">
        <ele>1447</ele>
        <time>2019-01-18T09:04:59Z</time>
      </trkpt>
      <trkpt lat="45.97565" lon="6.4499">
        <ele>1449</ele>
        <time>2019-01-18T09:05:13Z</time>
      </trkpt>
      <trkpt lat="45.97573" lon="6.44985">
        <ele>1450</ele>
        <time>2019-01-18T09:05:44Z</time>
      </trkpt>
      <trkpt lat="45.97574" lon="6.44977">
        <ele>1451</ele>
        <time>2019-01-18T09:05:54Z</time>
      </trkpt>
      <trkpt lat="45.97578" lon="6.4497">
        <ele>1455</ele>
        <time>2019-01-18T09:07:18Z</time>
      </trkpt>
      <trkpt lat="45.9759" lon="6.44962">
        <ele>1457</ele>
        <time>2019-01-18T09:07:44Z</time>
      </trkpt>
      <trkpt lat="45.97597" lon="6.44957">
        <ele>1457</ele>
        <time>2019-01-18T09:07:49Z</time>
      </trkpt>
      <trkpt lat="45.97608" lon="6.44947">
        <ele>1461</ele>
        <time>2019-01-18T09:08:24Z</time>
      </trkpt>
      <trkpt lat="45.9761" lon="6.44938">
        <ele>1462</ele>
        <time>2019-01-18T09:08:42Z</time>
      </trkpt>
      <trkpt lat="45.97624" lon="6.44929">
        <ele>1465</ele>
        <time>2019-01-18T09:09:08Z</time>
      </trkpt>
      <trkpt lat="45.97635" lon="6.4491">
        <ele>1468</ele>
        <time>2019-01-18T09:09:38Z</time>
      </trkpt>
      <trkpt lat="45.97641" lon="6.44894">
        <ele>1470</ele>
        <time>2019-01-18T09:10:03Z</time>
      </trkpt>
      <trkpt lat="45.97646" lon="6.4489">
        <ele>1473</ele>
        <time>2019-01-18T09:10:25Z</time>
      </trkpt>
      <trkpt lat="45.9765" lon="6.44886">
        <ele>1473</ele>
        <time>2019-01-18T09:10:29Z</time>
      </trkpt>
      <trkpt lat="45.97655" lon="6.44884">
        <ele>1474</ele>
        <time>2019-01-18T09:10:37Z</time>
      </trkpt>
      <trkpt lat="45.97661" lon="6.44884">
        <ele>1475</ele>
        <time>2019-01-18T09:10:50Z</time>
      </trkpt>
      <trkpt lat="45.97662" lon="6.44872">
        <ele>1477</ele>
        <time>2019-01-18T09:11:03Z</time>
      </trkpt>
      <trkpt lat="45.97659" lon="6.44861">
        <ele>1477</ele>
        <time>2019-01-18T09:11:38Z</time>
      </trkpt>
      <trkpt lat="45.97659" lon="6.44854">
        <ele>1478</ele>
        <time>2019-01-18T09:11:43Z</time>
      </trkpt>
      <trkpt lat="45.97662" lon="6.44847">
        <ele>1479</ele>
        <time>2019-01-18T09:11:54Z</time>
      </trkpt>
      <trkpt lat="45.97661" lon="6.44831">
        <ele>1482</ele>
        <time>2019-01-18T09:12:16Z</time>
      </trkpt>
      <trkpt lat="45.97662" lon="6.44824">
        <ele>1483</ele>
        <time>2019-01-18T09:12:22Z</time>
      </trkpt>
      <trkpt lat="45.97666" lon="6.44813">
        <ele>1485</ele>
        <time>2019-01-18T09:12:34Z</time>
      </trkpt>
      <trkpt lat="45.9767" lon="6.448">
        <ele>1486</ele>
        <time>2019-01-18T09:12:46Z</time>
      </trkpt>
      <trkpt lat="45.97673" lon="6.44794">
        <ele>1487</ele>
        <time>2019-01-18T09:13:04Z</time>
      </trkpt>
      <trkpt lat="45.97671" lon="6.44788">
        <ele>1489</ele>
        <time>2019-01-18T09:13:16Z</time>
      </trkpt>
      <trkpt lat="45.97667" lon="6.44764">
        <ele>1490</ele>
        <time>2019-01-18T09:13:28Z</time>
      </trkpt>
      <trkpt lat="45.9767" lon="6.44757">
        <ele>1491</ele>
        <time>2019-01-18T09:13:38Z</time>
      </trkpt>
      <trkpt lat="45.9767" lon="6.44751">
        <ele>1492</ele>
        <time>2019-01-18T09:13:50Z</time>
      </trkpt>
      <trkpt lat="45.97675" lon="6.44744">
        <ele>1494</ele>
        <time>2019-01-18T09:14:08Z</time>
      </trkpt>
      <trkpt lat="45.97673" lon="6.44724">
        <ele>1497</ele>
        <time>2019-01-18T09:14:38Z</time>
      </trkpt>
      <trkpt lat="45.97679" lon="6.44704">
        <ele>1499</ele>
        <time>2019-01-18T09:14:56Z</time>
      </trkpt>
      <trkpt lat="45.97679" lon="6.44698">
        <ele>1499</ele>
        <time>2019-01-18T09:15:00Z</time>
      </trkpt>
      <trkpt lat="45.97678" lon="6.4469">
        <ele>1500</ele>
        <time>2019-01-18T09:15:04Z</time>
      </trkpt>
      <trkpt lat="45.97679" lon="6.44684">
        <ele>1500</ele>
        <time>2019-01-18T09:15:12Z</time>
      </trkpt>
      <trkpt lat="45.97682" lon="6.44676">
        <ele>1500</ele>
        <time>2019-01-18T09:15:24Z</time>
      </trkpt>
      <trkpt lat="45.97688" lon="6.44674">
        <ele>1500</ele>
        <time>2019-01-18T09:15:42Z</time>
      </trkpt>
      <trkpt lat="45.97692" lon="6.44674">
        <ele>1500</ele>
        <time>2019-01-18T09:15:45Z</time>
      </trkpt>
      <trkpt lat="45.977" lon="6.44668">
        <ele>1501</ele>
        <time>2019-01-18T09:16:06Z</time>
      </trkpt>
      <trkpt lat="45.97704" lon="6.44663">
        <ele>1502</ele>
        <time>2019-01-18T09:16:12Z</time>
      </trkpt>
      <trkpt lat="45.9771" lon="6.44661">
        <ele>1503</ele>
        <time>2019-01-18T09:16:30Z</time>
      </trkpt>
      <trkpt lat="45.97715" lon="6.44653">
        <ele>1504</ele>
        <time>2019-01-18T09:16:42Z</time>
      </trkpt>
      <trkpt lat="45.97722" lon="6.44649">
        <ele>1505</ele>
        <time>2019-01-18T09:17:06Z</time>
      </trkpt>
      <trkpt lat="45.97736" lon="6.44632">
        <ele>1506</ele>
        <time>2019-01-18T09:17:16Z</time>
      </trkpt>
      <trkpt lat="45.97744" lon="6.44635">
        <ele>1507</ele>
        <time>2019-01-18T09:17:29Z</time>
      </trkpt>
      <trkpt lat="45.97749" lon="6.44633">
        <ele>1509</ele>
        <time>2019-01-18T09:17:53Z</time>
      </trkpt>
      <trkpt lat="45.97753" lon="6.44631">
        <ele>1509</ele>
        <time>2019-01-18T09:17:56Z</time>
      </trkpt>
      <trkpt lat="45.97759" lon="6.4463">
        <ele>1510</ele>
        <time>2019-01-18T09:18:05Z</time>
      </trkpt>
      <trkpt lat="45.97764" lon="6.44622">
        <ele>1510</ele>
        <time>2019-01-18T09:18:17Z</time>
      </trkpt>
      <trkpt lat="45.97769" lon="6.44615">
        <ele>1512</ele>
        <time>2019-01-18T09:18:32Z</time>
      </trkpt>
      <trkpt lat="45.97773" lon="6.44607">
        <ele>1510</ele>
        <time>2019-01-18T09:18:56Z</time>
      </trkpt>
      <trkpt lat="45.97781" lon="6.44601">
        <ele>1511</ele>
        <time>2019-01-18T09:19:06Z</time>
      </trkpt>
      <trkpt lat="45.97786" lon="6.44601">
        <ele>1511</ele>
        <time>2019-01-18T09:19:10Z</time>
      </trkpt>
      <trkpt lat="45.97792" lon="6.44598">
        <ele>1513</ele>
        <time>2019-01-18T09:19:22Z</time>
      </trkpt>
      <trkpt lat="45.97798" lon="6.44589">
        <ele>1514</ele>
        <time>2019-01-18T09:19:58Z</time>
      </trkpt>
      <trkpt lat="45.97805" lon="6.44593">
        <ele>1514</ele>
        <time>2019-01-18T09:20:10Z</time>
      </trkpt>
      <trkpt lat="45.97813" lon="6.44598">
        <ele>1515</ele>
        <time>2019-01-18T09:20:20Z</time>
      </trkpt>
      <trkpt lat="45.97814" lon="6.44591">
        <ele>1516</ele>
        <time>2019-01-18T09:20:29Z</time>
      </trkpt>
      <trkpt lat="45.97821" lon="6.44589">
        <ele>1519</ele>
        <time>2019-01-18T09:20:47Z</time>
      </trkpt>
      <trkpt lat="45.97829" lon="6.44587">
        <ele>1520</ele>
        <time>2019-01-18T09:20:58Z</time>
      </trkpt>
      <trkpt lat="45.97833" lon="6.44583">
        <ele>1521</ele>
        <time>2019-01-18T09:21:05Z</time>
      </trkpt>
      <trkpt lat="45.97838" lon="6.44572">
        <ele>1522</ele>
        <time>2019-01-18T09:21:14Z</time>
      </trkpt>
      <trkpt lat="45.97842" lon="6.44567">
        <ele>1523</ele>
        <time>2019-01-18T09:21:22Z</time>
      </trkpt>
      <trkpt lat="45.97845" lon="6.44559">
        <ele>1524</ele>
        <time>2019-01-18T09:21:29Z</time>
      </trkpt>
      <trkpt lat="45.9785" lon="6.44557">
        <ele>1525</ele>
        <time>2019-01-18T09:21:46Z</time>
      </trkpt>
      <trkpt lat="45.97853" lon="6.44547">
        <ele>1526</ele>
        <time>2019-01-18T09:21:58Z</time>
      </trkpt>
      <trkpt lat="45.97856" lon="6.44543">
        <ele>1526</ele>
        <time>2019-01-18T09:22:04Z</time>
      </trkpt>
      <trkpt lat="45.97861" lon="6.44541">
        <ele>1527</ele>
        <time>2019-01-18T09:22:17Z</time>
      </trkpt>
      <trkpt lat="45.97865" lon="6.4454">
        <ele>1529</ele>
        <time>2019-01-18T09:22:35Z</time>
      </trkpt>
      <trkpt lat="45.9787" lon="6.44539">
        <ele>1530</ele>
        <time>2019-01-18T09:22:46Z</time>
      </trkpt>
      <trkpt lat="45.97874" lon="6.44532">
        <ele>1531</ele>
        <time>2019-01-18T09:23:00Z</time>
      </trkpt>
      <trkpt lat="45.97879" lon="6.44532">
        <ele>1531</ele>
        <time>2019-01-18T09:23:03Z</time>
      </trkpt>
      <trkpt lat="45.97884" lon="6.44528">
        <ele>1532</ele>
        <time>2019-01-18T09:23:12Z</time>
      </trkpt>
      <trkpt lat="45.97889" lon="6.44524">
        <ele>1533</ele>
        <time>2019-01-18T09:23:29Z</time>
      </trkpt>
      <trkpt lat="45.97894" lon="6.44523">
        <ele>1533</ele>
        <time>2019-01-18T09:23:33Z</time>
      </trkpt>
      <trkpt lat="45.97905" lon="6.44513">
        <ele>1535</ele>
        <time>2019-01-18T09:23:48Z</time>
      </trkpt>
      <trkpt lat="45.97909" lon="6.44517">
        <ele>1537</ele>
        <time>2019-01-18T09:24:06Z</time>
      </trkpt>
      <trkpt lat="45.97913" lon="6.44511">
        <ele>1537</ele>
        <time>2019-01-18T09:24:11Z</time>
      </trkpt>
      <trkpt lat="45.97917" lon="6.44508">
        <ele>1538</ele>
        <time>2019-01-18T09:24:24Z</time>
      </trkpt>
      <trkpt lat="45.97923" lon="6.44502">
        <ele>1540</ele>
        <time>2019-01-18T09:24:44Z</time>
      </trkpt>
      <trkpt lat="45.97925" lon="6.44509">
        <ele>1540</ele>
        <time>2019-01-18T09:24:56Z</time>
      </trkpt>
      <trkpt lat="45.9793" lon="6.44511">
        <ele>1542</ele>
        <time>2019-01-18T09:25:03Z</time>
      </trkpt>
      <trkpt lat="45.97935" lon="6.44511">
        <ele>1542</ele>
        <time>2019-01-18T09:25:08Z</time>
      </trkpt>
      <trkpt lat="45.97937" lon="6.44504">
        <ele>1544</ele>
        <time>2019-01-18T09:25:18Z</time>
      </trkpt>
      <trkpt lat="45.97942" lon="6.445">
        <ele>1547</ele>
        <time>2019-01-18T09:25:48Z</time>
      </trkpt>
      <trkpt lat="45.97944" lon="6.44494">
        <ele>1547</ele>
        <time>2019-01-18T09:25:52Z</time>
      </trkpt>
      <trkpt lat="45.97949" lon="6.44492">
        <ele>1548</ele>
        <time>2019-01-18T09:26:02Z</time>
      </trkpt>
      <trkpt lat="45.97954" lon="6.44491">
        <ele>1549</ele>
        <time>2019-01-18T09:26:06Z</time>
      </trkpt>
      <trkpt lat="45.97958" lon="6.44489">
        <ele>1549</ele>
        <time>2019-01-18T09:27:46Z</time>
      </trkpt>
      <trkpt lat="45.97963" lon="6.44482">
        <ele>1551</ele>
        <time>2019-01-18T09:30:09Z</time>
      </trkpt>
      <trkpt lat="45.97963" lon="6.4449">
        <ele>1552</ele>
        <time>2019-01-18T09:30:38Z</time>
      </trkpt>
      <trkpt lat="45.97968" lon="6.44492">
        <ele>1553</ele>
        <time>2019-01-18T09:30:44Z</time>
      </trkpt>
      <trkpt lat="45.97972" lon="6.44488">
        <ele>1554</ele>
        <time>2019-01-18T09:30:50Z</time>
      </trkpt>
      <trkpt lat="45.97972" lon="6.44492">
        <ele>1554</ele>
        <time>2019-01-18T09:31:23Z</time>
      </trkpt>
      <trkpt lat="45.97981" lon="6.44488">
        <ele>1555</ele>
        <time>2019-01-18T09:32:20Z</time>
      </trkpt>
      <trkpt lat="45.97989" lon="6.44488">
        <ele>1555</ele>
        <time>2019-01-18T09:32:22Z</time>
      </trkpt>
      <trkpt lat="45.97995" lon="6.44484">
        <ele>1556</ele>
        <time>2019-01-18T09:32:31Z</time>
      </trkpt>
      <trkpt lat="45.98001" lon="6.44478">
        <ele>1558</ele>
        <time>2019-01-18T09:32:55Z</time>
      </trkpt>
      <trkpt lat="45.98" lon="6.44471">
        <ele>1564</ele>
        <time>2019-01-18T09:33:41Z</time>
      </trkpt>
      <trkpt lat="45.98" lon="6.44464">
        <ele>1565</ele>
        <time>2019-01-18T09:33:57Z</time>
      </trkpt>
      <trkpt lat="45.97999" lon="6.44458">
        <ele>1565</ele>
        <time>2019-01-18T09:34:07Z</time>
      </trkpt>
      <trkpt lat="45.98008" lon="6.44456">
        <ele>1570</ele>
        <time>2019-01-18T09:34:48Z</time>
      </trkpt>
      <trkpt lat="45.98017" lon="6.44457">
        <ele>1572</ele>
        <time>2019-01-18T09:35:10Z</time>
      </trkpt>
      <trkpt lat="45.98022" lon="6.44448">
        <ele>1574</ele>
        <time>2019-01-18T09:35:30Z</time>
      </trkpt>
      <trkpt lat="45.98027" lon="6.44451">
        <ele>1575</ele>
        <time>2019-01-18T09:35:42Z</time>
      </trkpt>
      <trkpt lat="45.98032" lon="6.44448">
        <ele>1576</ele>
        <time>2019-01-18T09:35:47Z</time>
      </trkpt>
      <trkpt lat="45.98037" lon="6.44443">
        <ele>1576</ele>
        <time>2019-01-18T09:35:53Z</time>
      </trkpt>
      <trkpt lat="45.98036" lon="6.44434">
        <ele>1578</ele>
        <time>2019-01-18T09:36:12Z</time>
      </trkpt>
      <trkpt lat="45.98035" lon="6.44423">
        <ele>1579</ele>
        <time>2019-01-18T09:36:26Z</time>
      </trkpt>
      <trkpt lat="45.98042" lon="6.44417">
        <ele>1582</ele>
        <time>2019-01-18T09:36:51Z</time>
      </trkpt>
      <trkpt lat="45.98044" lon="6.44408">
        <ele>1584</ele>
        <time>2019-01-18T09:37:06Z</time>
      </trkpt>
      <trkpt lat="45.98048" lon="6.44401">
        <ele>1585</ele>
        <time>2019-01-18T09:37:13Z</time>
      </trkpt>
      <trkpt lat="45.98052" lon="6.44393">
        <ele>1588</ele>
        <time>2019-01-18T09:37:40Z</time>
      </trkpt>
      <trkpt lat="45.98056" lon="6.44388">
        <ele>1588</ele>
        <time>2019-01-18T09:37:43Z</time>
      </trkpt>
      <trkpt lat="45.9805" lon="6.44366">
        <ele>1593</ele>
        <time>2019-01-18T09:38:21Z</time>
      </trkpt>
      <trkpt lat="45.98055" lon="6.44362">
        <ele>1595</ele>
        <time>2019-01-18T09:38:32Z</time>
      </trkpt>
      <trkpt lat="45.98052" lon="6.44356">
        <ele>1596</ele>
        <time>2019-01-18T09:38:38Z</time>
      </trkpt>
      <trkpt lat="45.98047" lon="6.44352">
        <ele>1596</ele>
        <time>2019-01-18T09:38:46Z</time>
      </trkpt>
      <trkpt lat="45.98045" lon="6.44341">
        <ele>1598</ele>
        <time>2019-01-18T09:38:55Z</time>
      </trkpt>
      <trkpt lat="45.98046" lon="6.44331">
        <ele>1599</ele>
        <time>2019-01-18T09:39:07Z</time>
      </trkpt>
      <trkpt lat="45.98049" lon="6.44325">
        <ele>1600</ele>
        <time>2019-01-18T09:39:19Z</time>
      </trkpt>
      <trkpt lat="45.98049" lon="6.44313">
        <ele>1603</ele>
        <time>2019-01-18T09:39:48Z</time>
      </trkpt>
      <trkpt lat="45.98048" lon="6.44306">
        <ele>1605</ele>
        <time>2019-01-18T09:40:02Z</time>
      </trkpt>
      <trkpt lat="45.98045" lon="6.44298">
        <ele>1608</ele>
        <time>2019-01-18T09:40:22Z</time>
      </trkpt>
      <trkpt lat="45.98044" lon="6.4429">
        <ele>1610</ele>
        <time>2019-01-18T09:40:36Z</time>
      </trkpt>
      <trkpt lat="45.98046" lon="6.44282">
        <ele>1611</ele>
        <time>2019-01-18T09:40:48Z</time>
      </trkpt>
      <trkpt lat="45.98048" lon="6.44274">
        <ele>1614</ele>
        <time>2019-01-18T09:41:06Z</time>
      </trkpt>
      <trkpt lat="45.9805" lon="6.44267">
        <ele>1615</ele>
        <time>2019-01-18T09:41:11Z</time>
      </trkpt>
      <trkpt lat="45.98046" lon="6.44259">
        <ele>1617</ele>
        <time>2019-01-18T09:41:28Z</time>
      </trkpt>
      <trkpt lat="45.98046" lon="6.44251">
        <ele>1618</ele>
        <time>2019-01-18T09:41:38Z</time>
      </trkpt>
      <trkpt lat="45.98043" lon="6.44242">
        <ele>1620</ele>
        <time>2019-01-18T09:41:52Z</time>
      </trkpt>
      <trkpt lat="45.98046" lon="6.44233">
        <ele>1622</ele>
        <time>2019-01-18T09:42:08Z</time>
      </trkpt>
      <trkpt lat="45.98045" lon="6.44224">
        <ele>1623</ele>
        <time>2019-01-18T09:42:12Z</time>
      </trkpt>
      <trkpt lat="45.98052" lon="6.44228">
        <ele>1625</ele>
        <time>2019-01-18T09:42:31Z</time>
      </trkpt>
      <trkpt lat="45.98056" lon="6.44224">
        <ele>1626</ele>
        <time>2019-01-18T09:42:37Z</time>
      </trkpt>
      <trkpt lat="45.98047" lon="6.44211">
        <ele>1629</ele>
        <time>2019-01-18T09:43:07Z</time>
      </trkpt>
      <trkpt lat="45.98038" lon="6.44211">
        <ele>1629</ele>
        <time>2019-01-18T09:43:12Z</time>
      </trkpt>
      <trkpt lat="45.9803" lon="6.44207">
        <ele>1631</ele>
        <time>2019-01-18T09:43:26Z</time>
      </trkpt>
      <trkpt lat="45.98028" lon="6.44201">
        <ele>1632</ele>
        <time>2019-01-18T09:43:38Z</time>
      </trkpt>
      <trkpt lat="45.98016" lon="6.44178">
        <ele>1638</ele>
        <time>2019-01-18T09:44:23Z</time>
      </trkpt>
      <trkpt lat="45.98011" lon="6.44175">
        <ele>1639</ele>
        <time>2019-01-18T09:44:46Z</time>
      </trkpt>
      <trkpt lat="45.98003" lon="6.44171">
        <ele>1640</ele>
        <time>2019-01-18T09:44:58Z</time>
      </trkpt>
      <trkpt lat="45.98001" lon="6.44165">
        <ele>1641</ele>
        <time>2019-01-18T09:45:10Z</time>
      </trkpt>
      <trkpt lat="45.97995" lon="6.44163">
        <ele>1643</ele>
        <time>2019-01-18T09:45:22Z</time>
      </trkpt>
      <trkpt lat="45.97987" lon="6.44161">
        <ele>1643</ele>
        <time>2019-01-18T09:45:49Z</time>
      </trkpt>
      <trkpt lat="45.97982" lon="6.44165">
        <ele>1643</ele>
        <time>2019-01-18T09:45:51Z</time>
      </trkpt>
      <trkpt lat="45.97977" lon="6.44159">
        <ele>1646</ele>
        <time>2019-01-18T09:46:11Z</time>
      </trkpt>
      <trkpt lat="45.97967" lon="6.44155">
        <ele>1649</ele>
        <time>2019-01-18T09:46:32Z</time>
      </trkpt>
      <trkpt lat="45.97963" lon="6.44152">
        <ele>1649</ele>
        <time>2019-01-18T09:46:44Z</time>
      </trkpt>
      <trkpt lat="45.97958" lon="6.44143">
        <ele>1651</ele>
        <time>2019-01-18T09:47:38Z</time>
      </trkpt>
      <trkpt lat="45.97954" lon="6.44145">
        <ele>1652</ele>
        <time>2019-01-18T09:47:49Z</time>
      </trkpt>
      <trkpt lat="45.97949" lon="6.44139">
        <ele>1653</ele>
        <time>2019-01-18T09:48:00Z</time>
      </trkpt>
      <trkpt lat="45.97945" lon="6.44136">
        <ele>1655</ele>
        <time>2019-01-18T09:48:14Z</time>
      </trkpt>
      <trkpt lat="45.97939" lon="6.44136">
        <ele>1657</ele>
        <time>2019-01-18T09:48:26Z</time>
      </trkpt>
      <trkpt lat="45.97934" lon="6.44138">
        <ele>1657</ele>
        <time>2019-01-18T09:48:31Z</time>
      </trkpt>
      <trkpt lat="45.97935" lon="6.44132">
        <ele>1660</ele>
        <time>2019-01-18T09:48:55Z</time>
      </trkpt>
      <trkpt lat="45.9794" lon="6.44124">
        <ele>1661</ele>
        <time>2019-01-18T09:49:05Z</time>
      </trkpt>
      <trkpt lat="45.97942" lon="6.44106">
        <ele>1666</ele>
        <time>2019-01-18T09:49:48Z</time>
      </trkpt>
      <trkpt lat="45.97947" lon="6.44105">
        <ele>1668</ele>
        <time>2019-01-18T09:50:02Z</time>
      </trkpt>
      <trkpt lat="45.97953" lon="6.44095">
        <ele>1671</ele>
        <time>2019-01-18T09:50:31Z</time>
      </trkpt>
      <trkpt lat="45.97956" lon="6.44093">
        <ele>1675</ele>
        <time>2019-01-18T09:51:05Z</time>
      </trkpt>
      <trkpt lat="45.97961" lon="6.4409">
        <ele>1676</ele>
        <time>2019-01-18T09:51:14Z</time>
      </trkpt>
      <trkpt lat="45.97968" lon="6.4408">
        <ele>1678</ele>
        <time>2019-01-18T09:51:25Z</time>
      </trkpt>
      <trkpt lat="45.97967" lon="6.4407">
        <ele>1679</ele>
        <time>2019-01-18T09:51:41Z</time>
      </trkpt>
      <trkpt lat="45.97963" lon="6.44058">
        <ele>1680</ele>
        <time>2019-01-18T09:51:53Z</time>
      </trkpt>
      <trkpt lat="45.97963" lon="6.4405">
        <ele>1681</ele>
        <time>2019-01-18T09:51:57Z</time>
      </trkpt>
      <trkpt lat="45.97971" lon="6.44039">
        <ele>1684</ele>
        <time>2019-01-18T09:52:16Z</time>
      </trkpt>
      <trkpt lat="45.97971" lon="6.44031">
        <ele>1685</ele>
        <time>2019-01-18T09:52:33Z</time>
      </trkpt>
      <trkpt lat="45.97964" lon="6.44035">
        <ele>1685</ele>
        <time>2019-01-18T09:52:58Z</time>
      </trkpt>
      <trkpt lat="45.9796" lon="6.44033">
        <ele>1686</ele>
        <time>2019-01-18T09:53:04Z</time>
      </trkpt>
      <trkpt lat="45.9795" lon="6.4403">
        <ele>1687</ele>
        <time>2019-01-18T09:53:22Z</time>
      </trkpt>
      <trkpt lat="45.97944" lon="6.44026">
        <ele>1687</ele>
        <time>2019-01-18T09:53:33Z</time>
      </trkpt>
      <trkpt lat="45.9794" lon="6.44018">
        <ele>1688</ele>
        <time>2019-01-18T09:53:45Z</time>
      </trkpt>
      <trkpt lat="45.97934" lon="6.44014">
        <ele>1688</ele>
        <time>2019-01-18T09:53:51Z</time>
      </trkpt>
      <trkpt lat="45.97924" lon="6.44014">
        <ele>1690</ele>
        <time>2019-01-18T09:54:11Z</time>
      </trkpt>
      <trkpt lat="45.97921" lon="6.44008">
        <ele>1693</ele>
        <time>2019-01-18T09:54:28Z</time>
      </trkpt>
      <trkpt lat="45.97915" lon="6.44006">
        <ele>1694</ele>
        <time>2019-01-18T09:54:36Z</time>
      </trkpt>
      <trkpt lat="45.97915" lon="6.43997">
        <ele>1697</ele>
        <time>2019-01-18T09:54:59Z</time>
      </trkpt>
      <trkpt lat="45.97918" lon="6.43993">
        <ele>1698</ele>
        <time>2019-01-18T09:55:07Z</time>
      </trkpt>
      <trkpt lat="45.97923" lon="6.43991">
        <ele>1699</ele>
        <time>2019-01-18T09:55:19Z</time>
      </trkpt>
      <trkpt lat="45.97929" lon="6.43992">
        <ele>1700</ele>
        <time>2019-01-18T09:55:31Z</time>
      </trkpt>
      <trkpt lat="45.97933" lon="6.43989">
        <ele>1701</ele>
        <time>2019-01-18T09:55:37Z</time>
      </trkpt>
      <trkpt lat="45.97933" lon="6.4398">
        <ele>1701</ele>
        <time>2019-01-18T09:55:43Z</time>
      </trkpt>
      <trkpt lat="45.97933" lon="6.43975">
        <ele>1701</ele>
        <time>2019-01-18T09:55:48Z</time>
      </trkpt>
      <trkpt lat="45.97938" lon="6.43969">
        <ele>1703</ele>
        <time>2019-01-18T09:56:01Z</time>
      </trkpt>
      <trkpt lat="45.97943" lon="6.43968">
        <ele>1704</ele>
        <time>2019-01-18T09:56:11Z</time>
      </trkpt>
      <trkpt lat="45.97948" lon="6.43968">
        <ele>1705</ele>
        <time>2019-01-18T09:56:26Z</time>
      </trkpt>
      <trkpt lat="45.97953" lon="6.43964">
        <ele>1707</ele>
        <time>2019-01-18T09:56:47Z</time>
      </trkpt>
      <trkpt lat="45.97958" lon="6.43961">
        <ele>1708</ele>
        <time>2019-01-18T09:57:41Z</time>
      </trkpt>
      <trkpt lat="45.97959" lon="6.43954">
        <ele>1709</ele>
        <time>2019-01-18T10:03:11Z</time>
      </trkpt>
      <trkpt lat="45.97969" lon="6.43941">
        <ele>1712</ele>
        <time>2019-01-18T10:03:35Z</time>
      </trkpt>
      <trkpt lat="45.97973" lon="6.43937">
        <ele>1713</ele>
        <time>2019-01-18T10:03:42Z</time>
      </trkpt>
      <trkpt lat="45.97974" lon="6.43931">
        <ele>1716</ele>
        <time>2019-01-18T10:03:58Z</time>
      </trkpt>
      <trkpt lat="45.97971" lon="6.43919">
        <ele>1719</ele>
        <time>2019-01-18T10:05:01Z</time>
      </trkpt>
      <trkpt lat="45.97968" lon="6.43913">
        <ele>1720</ele>
        <time>2019-01-18T10:05:05Z</time>
      </trkpt>
      <trkpt lat="45.97961" lon="6.43909">
        <ele>1721</ele>
        <time>2019-01-18T10:05:19Z</time>
      </trkpt>
      <trkpt lat="45.97962" lon="6.43895">
        <ele>1725</ele>
        <time>2019-01-18T10:05:36Z</time>
      </trkpt>
      <trkpt lat="45.97965" lon="6.43888">
        <ele>1726</ele>
        <time>2019-01-18T10:05:44Z</time>
      </trkpt>
      <trkpt lat="45.97974" lon="6.43879">
        <ele>1731</ele>
        <time>2019-01-18T10:06:26Z</time>
      </trkpt>
      <trkpt lat="45.97981" lon="6.43879">
        <ele>1733</ele>
        <time>2019-01-18T10:06:39Z</time>
      </trkpt>
      <trkpt lat="45.97985" lon="6.43872">
        <ele>1735</ele>
        <time>2019-01-18T10:06:51Z</time>
      </trkpt>
      <trkpt lat="45.97981" lon="6.43866">
        <ele>1739</ele>
        <time>2019-01-18T10:07:18Z</time>
      </trkpt>
      <trkpt lat="45.97978" lon="6.43859">
        <ele>1740</ele>
        <time>2019-01-18T10:07:29Z</time>
      </trkpt>
      <trkpt lat="45.97976" lon="6.43852">
        <ele>1743</ele>
        <time>2019-01-18T10:07:47Z</time>
      </trkpt>
      <trkpt lat="45.97974" lon="6.43846">
        <ele>1743</ele>
        <time>2019-01-18T10:08:11Z</time>
      </trkpt>
      <trkpt lat="45.97976" lon="6.43837">
        <ele>1744</ele>
        <time>2019-01-18T10:08:23Z</time>
      </trkpt>
      <trkpt lat="45.97975" lon="6.43828">
        <ele>1746</ele>
        <time>2019-01-18T10:08:35Z</time>
      </trkpt>
      <trkpt lat="45.97973" lon="6.43817">
        <ele>1745</ele>
        <time>2019-01-18T10:08:48Z</time>
      </trkpt>
      <trkpt lat="45.97972" lon="6.43806">
        <ele>1748</ele>
        <time>2019-01-18T10:09:10Z</time>
      </trkpt>
      <trkpt lat="45.97969" lon="6.438">
        <ele>1749</ele>
        <time>2019-01-18T10:09:19Z</time>
      </trkpt>
      <trkpt lat="45.9797" lon="6.43793">
        <ele>1751</ele>
        <time>2019-01-18T10:09:37Z</time>
      </trkpt>
      <trkpt lat="45.97967" lon="6.43768">
        <ele>1754</ele>
        <time>2019-01-18T10:09:58Z</time>
      </trkpt>
      <trkpt lat="45.97969" lon="6.43761">
        <ele>1756</ele>
        <time>2019-01-18T10:10:12Z</time>
      </trkpt>
      <trkpt lat="45.97969" lon="6.43754">
        <ele>1756</ele>
        <time>2019-01-18T10:10:19Z</time>
      </trkpt>
      <trkpt lat="45.97968" lon="6.43745">
        <ele>1756</ele>
        <time>2019-01-18T10:10:27Z</time>
      </trkpt>
      <trkpt lat="45.97968" lon="6.43737">
        <ele>1757</ele>
        <time>2019-01-18T10:10:37Z</time>
      </trkpt>
      <trkpt lat="45.97969" lon="6.4373">
        <ele>1757</ele>
        <time>2019-01-18T10:10:43Z</time>
      </trkpt>
      <trkpt lat="45.97968" lon="6.43722">
        <ele>1757</ele>
        <time>2019-01-18T10:10:51Z</time>
      </trkpt>
      <trkpt lat="45.97967" lon="6.43712">
        <ele>1757</ele>
        <time>2019-01-18T10:10:56Z</time>
      </trkpt>
      <trkpt lat="45.97961" lon="6.43702">
        <ele>1759</ele>
        <time>2019-01-18T10:11:13Z</time>
      </trkpt>
      <trkpt lat="45.97957" lon="6.43697">
        <ele>1760</ele>
        <time>2019-01-18T10:12:29Z</time>
      </trkpt>
      <trkpt lat="45.97955" lon="6.43688">
        <ele>1760</ele>
        <time>2019-01-18T10:12:41Z</time>
      </trkpt>
      <trkpt lat="45.97953" lon="6.43681">
        <ele>1760</ele>
        <time>2019-01-18T10:12:46Z</time>
      </trkpt>
      <trkpt lat="45.97952" lon="6.43673">
        <ele>1760</ele>
        <time>2019-01-18T10:12:54Z</time>
      </trkpt>
      <trkpt lat="45.97954" lon="6.43665">
        <ele>1760</ele>
        <time>2019-01-18T10:12:58Z</time>
      </trkpt>
      <trkpt lat="45.97953" lon="6.43659">
        <ele>1761</ele>
        <time>2019-01-18T10:13:08Z</time>
      </trkpt>
      <trkpt lat="45.97957" lon="6.43652">
        <ele>1762</ele>
        <time>2019-01-18T10:13:26Z</time>
      </trkpt>
      <trkpt lat="45.97957" lon="6.43644">
        <ele>1763</ele>
        <time>2019-01-18T10:13:38Z</time>
      </trkpt>
      <trkpt lat="45.97951" lon="6.43634">
        <ele>1765</ele>
        <time>2019-01-18T10:13:58Z</time>
      </trkpt>
      <trkpt lat="45.97946" lon="6.43631">
        <ele>1766</ele>
        <time>2019-01-18T10:14:01Z</time>
      </trkpt>
      <trkpt lat="45.97949" lon="6.43624">
        <ele>1766</ele>
        <time>2019-01-18T10:14:07Z</time>
      </trkpt>
      <trkpt lat="45.9795" lon="6.43617">
        <ele>1767</ele>
        <time>2019-01-18T10:14:14Z</time>
      </trkpt>
      <trkpt lat="45.9795" lon="6.43608">
        <ele>1768</ele>
        <time>2019-01-18T10:14:21Z</time>
      </trkpt>
      <trkpt lat="45.97948" lon="6.43603">
        <ele>1769</ele>
        <time>2019-01-18T10:14:31Z</time>
      </trkpt>
      <trkpt lat="45.97951" lon="6.43598">
        <ele>1772</ele>
        <time>2019-01-18T10:14:47Z</time>
      </trkpt>
      <trkpt lat="45.97953" lon="6.43593">
        <ele>1776</ele>
        <time>2019-01-18T10:15:17Z</time>
      </trkpt>
      <trkpt lat="45.97947" lon="6.4359">
        <ele>1778</ele>
        <time>2019-01-18T10:15:30Z</time>
      </trkpt>
      <trkpt lat="45.97944" lon="6.43585">
        <ele>1781</ele>
        <time>2019-01-18T10:15:58Z</time>
      </trkpt>
      <trkpt lat="45.97949" lon="6.4358">
        <ele>1782</ele>
        <time>2019-01-18T10:16:16Z</time>
      </trkpt>
      <trkpt lat="45.97943" lon="6.43574">
        <ele>1786</ele>
        <time>2019-01-18T10:16:40Z</time>
      </trkpt>
      <trkpt lat="45.97938" lon="6.43575">
        <ele>1786</ele>
        <time>2019-01-18T10:16:45Z</time>
      </trkpt>
      <trkpt lat="45.97933" lon="6.43571">
        <ele>1788</ele>
        <time>2019-01-18T10:16:58Z</time>
      </trkpt>
      <trkpt lat="45.97931" lon="6.43563">
        <ele>1790</ele>
        <time>2019-01-18T10:17:10Z</time>
      </trkpt>
      <trkpt lat="45.97936" lon="6.43559">
        <ele>1792</ele>
        <time>2019-01-18T10:17:28Z</time>
      </trkpt>
      <trkpt lat="45.97937" lon="6.43549">
        <ele>1793</ele>
        <time>2019-01-18T10:17:40Z</time>
      </trkpt>
      <trkpt lat="45.9794" lon="6.43543">
        <ele>1794</ele>
        <time>2019-01-18T10:17:47Z</time>
      </trkpt>
      <trkpt lat="45.97945" lon="6.43536">
        <ele>1796</ele>
        <time>2019-01-18T10:17:59Z</time>
      </trkpt>
      <trkpt lat="45.97948" lon="6.43531">
        <ele>1798</ele>
        <time>2019-01-18T10:18:17Z</time>
      </trkpt>
      <trkpt lat="45.9795" lon="6.43525">
        <ele>1800</ele>
        <time>2019-01-18T10:18:35Z</time>
      </trkpt>
      <trkpt lat="45.97946" lon="6.43521">
        <ele>1803</ele>
        <time>2019-01-18T10:18:47Z</time>
      </trkpt>
      <trkpt lat="45.97939" lon="6.43507">
        <ele>1811</ele>
        <time>2019-01-18T10:19:23Z</time>
      </trkpt>
      <trkpt lat="45.97936" lon="6.43502">
        <ele>1813</ele>
        <time>2019-01-18T10:19:41Z</time>
      </trkpt>
      <trkpt lat="45.97934" lon="6.43495">
        <ele>1814</ele>
        <time>2019-01-18T10:19:53Z</time>
      </trkpt>
      <trkpt lat="45.9793" lon="6.43484">
        <ele>1818</ele>
        <time>2019-01-18T10:20:17Z</time>
      </trkpt>
      <trkpt lat="45.97925" lon="6.43465">
        <ele>1820</ele>
        <time>2019-01-18T10:20:39Z</time>
      </trkpt>
      <trkpt lat="45.97917" lon="6.43447">
        <ele>1824</ele>
        <time>2019-01-18T10:21:13Z</time>
      </trkpt>
      <trkpt lat="45.97915" lon="6.4344">
        <ele>1825</ele>
        <time>2019-01-18T10:21:23Z</time>
      </trkpt>
      <trkpt lat="45.97914" lon="6.43432">
        <ele>1828</ele>
        <time>2019-01-18T10:21:44Z</time>
      </trkpt>
      <trkpt lat="45.97916" lon="6.43425">
        <ele>1829</ele>
        <time>2019-01-18T10:21:58Z</time>
      </trkpt>
      <trkpt lat="45.97909" lon="6.43405">
        <ele>1831</ele>
        <time>2019-01-18T10:22:25Z</time>
      </trkpt>
      <trkpt lat="45.97905" lon="6.43397">
        <ele>1833</ele>
        <time>2019-01-18T10:22:39Z</time>
      </trkpt>
      <trkpt lat="45.97903" lon="6.43385">
        <ele>1834</ele>
        <time>2019-01-18T10:22:52Z</time>
      </trkpt>
      <trkpt lat="45.97903" lon="6.43376">
        <ele>1836</ele>
        <time>2019-01-18T10:23:06Z</time>
      </trkpt>
      <trkpt lat="45.979" lon="6.43368">
        <ele>1840</ele>
        <time>2019-01-18T10:23:36Z</time>
      </trkpt>
      <trkpt lat="45.97899" lon="6.43361">
        <ele>1842</ele>
        <time>2019-01-18T10:23:54Z</time>
      </trkpt>
      <trkpt lat="45.97894" lon="6.43347">
        <ele>1843</ele>
        <time>2019-01-18T10:24:07Z</time>
      </trkpt>
      <trkpt lat="45.9789" lon="6.43342">
        <ele>1845</ele>
        <time>2019-01-18T10:24:25Z</time>
      </trkpt>
      <trkpt lat="45.97891" lon="6.43333">
        <ele>1845</ele>
        <time>2019-01-18T10:24:37Z</time>
      </trkpt>
      <trkpt lat="45.97894" lon="6.43325">
        <ele>1846</ele>
        <time>2019-01-18T10:24:49Z</time>
      </trkpt>
      <trkpt lat="45.97892" lon="6.43316">
        <ele>1846</ele>
        <time>2019-01-18T10:25:01Z</time>
      </trkpt>
      <trkpt lat="45.9789" lon="6.43309">
        <ele>1847</ele>
        <time>2019-01-18T10:25:10Z</time>
      </trkpt>
      <trkpt lat="45.97888" lon="6.43299">
        <ele>1847</ele>
        <time>2019-01-18T10:25:20Z</time>
      </trkpt>
      <trkpt lat="45.97888" lon="6.43291">
        <ele>1847</ele>
        <time>2019-01-18T10:25:25Z</time>
      </trkpt>
      <trkpt lat="45.97887" lon="6.43284">
        <ele>1849</ele>
        <time>2019-01-18T10:25:51Z</time>
      </trkpt>
      <trkpt lat="45.97883" lon="6.43278">
        <ele>1850</ele>
        <time>2019-01-18T10:26:03Z</time>
      </trkpt>
      <trkpt lat="45.97881" lon="6.43271">
        <ele>1851</ele>
        <time>2019-01-18T10:26:21Z</time>
      </trkpt>
      <trkpt lat="45.97878" lon="6.43263">
        <ele>1851</ele>
        <time>2019-01-18T10:26:39Z</time>
      </trkpt>
      <trkpt lat="45.97876" lon="6.43253">
        <ele>1852</ele>
        <time>2019-01-18T10:26:57Z</time>
      </trkpt>
      <trkpt lat="45.9787" lon="6.43242">
        <ele>1853</ele>
        <time>2019-01-18T10:27:06Z</time>
      </trkpt>
      <trkpt lat="45.97867" lon="6.43235">
        <ele>1853</ele>
        <time>2019-01-18T10:27:11Z</time>
      </trkpt>
      <trkpt lat="45.97864" lon="6.43229">
        <ele>1855</ele>
        <time>2019-01-18T10:27:32Z</time>
      </trkpt>
      <trkpt lat="45.9786" lon="6.43226">
        <ele>1858</ele>
        <time>2019-01-18T10:27:56Z</time>
      </trkpt>
      <trkpt lat="45.97851" lon="6.43218">
        <ele>1860</ele>
        <time>2019-01-18T10:28:12Z</time>
      </trkpt>
      <trkpt lat="45.97842" lon="6.4321">
        <ele>1862</ele>
        <time>2019-01-18T10:28:28Z</time>
      </trkpt>
      <trkpt lat="45.97841" lon="6.43205">
        <ele>1864</ele>
        <time>2019-01-18T10:28:41Z</time>
      </trkpt>
      <trkpt lat="45.97838" lon="6.432">
        <ele>1867</ele>
        <time>2019-01-18T10:29:05Z</time>
      </trkpt>
      <trkpt lat="45.97842" lon="6.4319">
        <ele>1871</ele>
        <time>2019-01-18T10:29:30Z</time>
      </trkpt>
      <trkpt lat="45.97853" lon="6.43188">
        <ele>1872</ele>
        <time>2019-01-18T10:29:38Z</time>
      </trkpt>
      <trkpt lat="45.97851" lon="6.43177">
        <ele>1873</ele>
        <time>2019-01-18T10:29:49Z</time>
      </trkpt>
      <trkpt lat="45.97846" lon="6.43172">
        <ele>1875</ele>
        <time>2019-01-18T10:30:01Z</time>
      </trkpt>
      <trkpt lat="45.97841" lon="6.43172">
        <ele>1875</ele>
        <time>2019-01-18T10:30:09Z</time>
      </trkpt>
      <trkpt lat="45.97835" lon="6.43172">
        <ele>1877</ele>
        <time>2019-01-18T10:30:26Z</time>
      </trkpt>
      <trkpt lat="45.97833" lon="6.43166">
        <ele>1876</ele>
        <time>2019-01-18T10:31:03Z</time>
      </trkpt>
      <trkpt lat="45.97835" lon="6.43159">
        <ele>1876</ele>
        <time>2019-01-18T10:31:08Z</time>
      </trkpt>
      <trkpt lat="45.97839" lon="6.43154">
        <ele>1876</ele>
        <time>2019-01-18T10:31:23Z</time>
      </trkpt>
      <trkpt lat="45.97844" lon="6.43148">
        <ele>1877</ele>
        <time>2019-01-18T10:31:30Z</time>
      </trkpt>
      <trkpt lat="45.97843" lon="6.4314">
        <ele>1879</ele>
        <time>2019-01-18T10:31:42Z</time>
      </trkpt>
      <trkpt lat="45.97842" lon="6.43131">
        <ele>1882</ele>
        <time>2019-01-18T10:32:12Z</time>
      </trkpt>
      <trkpt lat="45.97847" lon="6.43131">
        <ele>1885</ele>
        <time>2019-01-18T10:32:30Z</time>
      </trkpt>
      <trkpt lat="45.97852" lon="6.43127">
        <ele>1886</ele>
        <time>2019-01-18T10:32:42Z</time>
      </trkpt>
      <trkpt lat="45.97856" lon="6.43131">
        <ele>1887</ele>
        <time>2019-01-18T10:32:55Z</time>
      </trkpt>
      <trkpt lat="45.97861" lon="6.43132">
        <ele>1890</ele>
        <time>2019-01-18T10:33:13Z</time>
      </trkpt>
      <trkpt lat="45.97866" lon="6.43128">
        <ele>1892</ele>
        <time>2019-01-18T10:33:25Z</time>
      </trkpt>
      <trkpt lat="45.97873" lon="6.43127">
        <ele>1894</ele>
        <time>2019-01-18T10:33:41Z</time>
      </trkpt>
      <trkpt lat="45.97879" lon="6.43124">
        <ele>1896</ele>
        <time>2019-01-18T10:33:56Z</time>
      </trkpt>
      <trkpt lat="45.97891" lon="6.43122">
        <ele>1901</ele>
        <time>2019-01-18T10:34:27Z</time>
      </trkpt>
      <trkpt lat="45.97897" lon="6.43122">
        <ele>1905</ele>
        <time>2019-01-18T10:34:57Z</time>
      </trkpt>
      <trkpt lat="45.97901" lon="6.43119">
        <ele>1906</ele>
        <time>2019-01-18T10:35:02Z</time>
      </trkpt>
      <trkpt lat="45.97905" lon="6.43122">
        <ele>1907</ele>
        <time>2019-01-18T10:35:16Z</time>
      </trkpt>
      <trkpt lat="45.97913" lon="6.4313">
        <ele>1910</ele>
        <time>2019-01-18T10:36:40Z</time>
      </trkpt>
      <trkpt lat="45.97917" lon="6.43127">
        <ele>1914</ele>
        <time>2019-01-18T10:37:22Z</time>
      </trkpt>
      <trkpt lat="45.97922" lon="6.43125">
        <ele>1915</ele>
        <time>2019-01-18T10:37:40Z</time>
      </trkpt>
      <trkpt lat="45.97924" lon="6.43131">
        <ele>1917</ele>
        <time>2019-01-18T10:38:22Z</time>
      </trkpt>
      <trkpt lat="45.97928" lon="6.43135">
        <ele>1918</ele>
        <time>2019-01-18T10:38:29Z</time>
      </trkpt>
      <trkpt lat="45.9794" lon="6.43139">
        <ele>1921</ele>
        <time>2019-01-18T10:38:54Z</time>
      </trkpt>
      <trkpt lat="45.97954" lon="6.43144">
        <ele>1924</ele>
        <time>2019-01-18T10:39:31Z</time>
      </trkpt>
      <trkpt lat="45.97965" lon="6.43153">
        <ele>1927</ele>
        <time>2019-01-18T10:39:56Z</time>
      </trkpt>
      <trkpt lat="45.97969" lon="6.43159">
        <ele>1928</ele>
        <time>2019-01-18T10:40:01Z</time>
      </trkpt>
      <trkpt lat="45.97976" lon="6.43163">
        <ele>1929</ele>
        <time>2019-01-18T10:40:11Z</time>
      </trkpt>
      <trkpt lat="45.97981" lon="6.43167">
        <ele>1932</ele>
        <time>2019-01-18T10:40:31Z</time>
      </trkpt>
      <trkpt lat="45.97988" lon="6.43169">
        <ele>1936</ele>
        <time>2019-01-18T10:41:07Z</time>
      </trkpt>
      <trkpt lat="45.97991" lon="6.43175">
        <ele>1937</ele>
        <time>2019-01-18T10:41:12Z</time>
      </trkpt>
      <trkpt lat="45.98005" lon="6.4318">
        <ele>1939</ele>
        <time>2019-01-18T10:41:30Z</time>
      </trkpt>
      <trkpt lat="45.98009" lon="6.43187">
        <ele>1943</ele>
        <time>2019-01-18T10:41:58Z</time>
      </trkpt>
      <trkpt lat="45.98017" lon="6.43188">
        <ele>1945</ele>
        <time>2019-01-18T10:42:18Z</time>
      </trkpt>
      <trkpt lat="45.98023" lon="6.43187">
        <ele>1945</ele>
        <time>2019-01-18T10:42:21Z</time>
      </trkpt>
      <trkpt lat="45.98026" lon="6.43189">
        <ele>1947</ele>
        <time>2019-01-18T10:42:32Z</time>
      </trkpt>
      <trkpt lat="45.98031" lon="6.43195">
        <ele>1950</ele>
        <time>2019-01-18T10:42:57Z</time>
      </trkpt>
      <trkpt lat="45.98035" lon="6.43192">
        <ele>1951</ele>
        <time>2019-01-18T10:43:05Z</time>
      </trkpt>
      <trkpt lat="45.98037" lon="6.43201">
        <ele>1954</ele>
        <time>2019-01-18T10:44:17Z</time>
      </trkpt>
      <trkpt lat="45.98042" lon="6.43206">
        <ele>1954</ele>
        <time>2019-01-18T10:44:24Z</time>
      </trkpt>
      <trkpt lat="45.98054" lon="6.43212">
        <ele>1956</ele>
        <time>2019-01-18T10:44:43Z</time>
      </trkpt>
      <trkpt lat="45.98068" lon="6.43215">
        <ele>1961</ele>
        <time>2019-01-18T10:45:21Z</time>
      </trkpt>
      <trkpt lat="45.98074" lon="6.43214">
        <ele>1963</ele>
        <time>2019-01-18T10:46:02Z</time>
      </trkpt>
      <trkpt lat="45.98078" lon="6.43218">
        <ele>1966</ele>
        <time>2019-01-18T10:46:22Z</time>
      </trkpt>
      <trkpt lat="45.98084" lon="6.43214">
        <ele>1972</ele>
        <time>2019-01-18T10:47:39Z</time>
      </trkpt>
      <trkpt lat="45.98088" lon="6.43217">
        <ele>1975</ele>
        <time>2019-01-18T10:48:40Z</time>
      </trkpt>
      <trkpt lat="45.98094" lon="6.43218">
        <ele>1979</ele>
        <time>2019-01-18T10:49:40Z</time>
      </trkpt>
      <trkpt lat="45.98103" lon="6.43214">
        <ele>1982</ele>
        <time>2019-01-18T10:50:14Z</time>
      </trkpt>
      <trkpt lat="45.98108" lon="6.43216">
        <ele>1983</ele>
        <time>2019-01-18T10:50:22Z</time>
      </trkpt>
      <trkpt lat="45.98115" lon="6.43219">
        <ele>1990</ele>
        <time>2019-01-18T10:54:29Z</time>
      </trkpt>
      <trkpt lat="45.98116" lon="6.4323">
        <ele>1982</ele>
        <time>2019-01-18T11:05:59Z</time>
      </trkpt>
      <trkpt lat="45.98116" lon="6.43239">
        <ele>1982</ele>
        <time>2019-01-18T11:06:01Z</time>
      </trkpt>
      <trkpt lat="45.98115" lon="6.43245">
        <ele>1979</ele>
        <time>2019-01-18T11:06:03Z</time>
      </trkpt>
      <trkpt lat="45.98113" lon="6.43252">
        <ele>1976</ele>
        <time>2019-01-18T11:06:05Z</time>
      </trkpt>
      <trkpt lat="45.98107" lon="6.43252">
        <ele>1972</ele>
        <time>2019-01-18T11:06:07Z</time>
      </trkpt>
      <trkpt lat="45.98101" lon="6.43252">
        <ele>1970</ele>
        <time>2019-01-18T11:06:09Z</time>
      </trkpt>
      <trkpt lat="45.98095" lon="6.43253">
        <ele>1966</ele>
        <time>2019-01-18T11:06:11Z</time>
      </trkpt>
      <trkpt lat="45.98093" lon="6.43259">
        <ele>1965</ele>
        <time>2019-01-18T11:06:13Z</time>
      </trkpt>
      <trkpt lat="45.98088" lon="6.43263">
        <ele>1959</ele>
        <time>2019-01-18T11:06:16Z</time>
      </trkpt>
      <trkpt lat="45.9809" lon="6.43273">
        <ele>1957</ele>
        <time>2019-01-18T11:06:19Z</time>
      </trkpt>
      <trkpt lat="45.98089" lon="6.43298">
        <ele>1947</ele>
        <time>2019-01-18T11:06:49Z</time>
      </trkpt>
      <trkpt lat="45.98088" lon="6.43309">
        <ele>1944</ele>
        <time>2019-01-18T11:06:51Z</time>
      </trkpt>
      <trkpt lat="45.98078" lon="6.43328">
        <ele>1938</ele>
        <time>2019-01-18T11:06:55Z</time>
      </trkpt>
      <trkpt lat="45.98072" lon="6.43337">
        <ele>1933</ele>
        <time>2019-01-18T11:06:57Z</time>
      </trkpt>
      <trkpt lat="45.98066" lon="6.43341">
        <ele>1930</ele>
        <time>2019-01-18T11:06:59Z</time>
      </trkpt>
      <trkpt lat="45.98052" lon="6.43335">
        <ele>1925</ele>
        <time>2019-01-18T11:07:01Z</time>
      </trkpt>
      <trkpt lat="45.98049" lon="6.43341">
        <ele>1923</ele>
        <time>2019-01-18T11:07:03Z</time>
      </trkpt>
      <trkpt lat="45.98046" lon="6.43346">
        <ele>1921</ele>
        <time>2019-01-18T11:07:05Z</time>
      </trkpt>
      <trkpt lat="45.9804" lon="6.43351">
        <ele>1920</ele>
        <time>2019-01-18T11:07:07Z</time>
      </trkpt>
      <trkpt lat="45.98024" lon="6.43352">
        <ele>1915</ele>
        <time>2019-01-18T11:07:11Z</time>
      </trkpt>
      <trkpt lat="45.98011" lon="6.43344">
        <ele>1910</ele>
        <time>2019-01-18T11:07:15Z</time>
      </trkpt>
      <trkpt lat="45.9801" lon="6.43351">
        <ele>1908</ele>
        <time>2019-01-18T11:07:21Z</time>
      </trkpt>
      <trkpt lat="45.98016" lon="6.43355">
        <ele>1908</ele>
        <time>2019-01-18T11:07:26Z</time>
      </trkpt>
      <trkpt lat="45.98015" lon="6.43363">
        <ele>1906</ele>
        <time>2019-01-18T11:08:17Z</time>
      </trkpt>
      <trkpt lat="45.97996" lon="6.43369">
        <ele>1894</ele>
        <time>2019-01-18T11:08:23Z</time>
      </trkpt>
      <trkpt lat="45.97991" lon="6.43369">
        <ele>1891</ele>
        <time>2019-01-18T11:08:26Z</time>
      </trkpt>
      <trkpt lat="45.97957" lon="6.43333">
        <ele>1883</ele>
        <time>2019-01-18T11:08:41Z</time>
      </trkpt>
      <trkpt lat="45.97958" lon="6.43353">
        <ele>1879</ele>
        <time>2019-01-18T11:08:53Z</time>
      </trkpt>
      <trkpt lat="45.97953" lon="6.43356">
        <ele>1875</ele>
        <time>2019-01-18T11:08:55Z</time>
      </trkpt>
      <trkpt lat="45.97955" lon="6.43367">
        <ele>1873</ele>
        <time>2019-01-18T11:08:57Z</time>
      </trkpt>
      <trkpt lat="45.97954" lon="6.43377">
        <ele>1868</ele>
        <time>2019-01-18T11:08:59Z</time>
      </trkpt>
      <trkpt lat="45.97946" lon="6.43372">
        <ele>1865</ele>
        <time>2019-01-18T11:09:00Z</time>
      </trkpt>
      <trkpt lat="45.97942" lon="6.43369">
        <ele>1865</ele>
        <time>2019-01-18T11:09:01Z</time>
      </trkpt>
      <trkpt lat="45.97936" lon="6.43368">
        <ele>1864</ele>
        <time>2019-01-18T11:09:06Z</time>
      </trkpt>
      <trkpt lat="45.97933" lon="6.43377">
        <ele>1863</ele>
        <time>2019-01-18T11:09:25Z</time>
      </trkpt>
      <trkpt lat="45.97937" lon="6.43384">
        <ele>1861</ele>
        <time>2019-01-18T11:09:28Z</time>
      </trkpt>
      <trkpt lat="45.9793" lon="6.43398">
        <ele>1853</ele>
        <time>2019-01-18T11:09:34Z</time>
      </trkpt>
      <trkpt lat="45.97923" lon="6.43396">
        <ele>1848</ele>
        <time>2019-01-18T11:09:36Z</time>
      </trkpt>
      <trkpt lat="45.97918" lon="6.43394">
        <ele>1845</ele>
        <time>2019-01-18T11:09:38Z</time>
      </trkpt>
      <trkpt lat="45.97916" lon="6.43407">
        <ele>1843</ele>
        <time>2019-01-18T11:09:41Z</time>
      </trkpt>
      <trkpt lat="45.97914" lon="6.43417">
        <ele>1837</ele>
        <time>2019-01-18T11:09:43Z</time>
      </trkpt>
      <trkpt lat="45.97912" lon="6.43427">
        <ele>1836</ele>
        <time>2019-01-18T11:09:47Z</time>
      </trkpt>
      <trkpt lat="45.97915" lon="6.43433">
        <ele>1837</ele>
        <time>2019-01-18T11:09:50Z</time>
      </trkpt>
      <trkpt lat="45.97918" lon="6.43438">
        <ele>1837</ele>
        <time>2019-01-18T11:10:01Z</time>
      </trkpt>
      <trkpt lat="45.97925" lon="6.43434">
        <ele>1837</ele>
        <time>2019-01-18T11:10:26Z</time>
      </trkpt>
      <trkpt lat="45.97927" lon="6.43448">
        <ele>1833</ele>
        <time>2019-01-18T11:11:59Z</time>
      </trkpt>
      <trkpt lat="45.97924" lon="6.43456">
        <ele>1831</ele>
        <time>2019-01-18T11:12:01Z</time>
      </trkpt>
      <trkpt lat="45.97918" lon="6.43461">
        <ele>1826</ele>
        <time>2019-01-18T11:12:03Z</time>
      </trkpt>
      <trkpt lat="45.97915" lon="6.43467">
        <ele>1824</ele>
        <time>2019-01-18T11:12:05Z</time>
      </trkpt>
      <trkpt lat="45.97915" lon="6.43481">
        <ele>1820</ele>
        <time>2019-01-18T11:12:07Z</time>
      </trkpt>
      <trkpt lat="45.97917" lon="6.43495">
        <ele>1819</ele>
        <time>2019-01-18T11:12:08Z</time>
      </trkpt>
      <trkpt lat="45.97917" lon="6.43501">
        <ele>1816</ele>
        <time>2019-01-18T11:12:09Z</time>
      </trkpt>
      <trkpt lat="45.97918" lon="6.43508">
        <ele>1816</ele>
        <time>2019-01-18T11:12:10Z</time>
      </trkpt>
      <trkpt lat="45.97917" lon="6.43516">
        <ele>1813</ele>
        <time>2019-01-18T11:12:11Z</time>
      </trkpt>
      <trkpt lat="45.9792" lon="6.43527">
        <ele>1811</ele>
        <time>2019-01-18T11:12:13Z</time>
      </trkpt>
      <trkpt lat="45.97916" lon="6.43535">
        <ele>1810</ele>
        <time>2019-01-18T11:12:14Z</time>
      </trkpt>
      <trkpt lat="45.97915" lon="6.43541">
        <ele>1808</ele>
        <time>2019-01-18T11:12:15Z</time>
      </trkpt>
      <trkpt lat="45.9793" lon="6.43542">
        <ele>1805</ele>
        <time>2019-01-18T11:12:21Z</time>
      </trkpt>
      <trkpt lat="45.9793" lon="6.43549">
        <ele>1804</ele>
        <time>2019-01-18T11:12:22Z</time>
      </trkpt>
      <trkpt lat="45.97934" lon="6.43553">
        <ele>1801</ele>
        <time>2019-01-18T11:12:24Z</time>
      </trkpt>
      <trkpt lat="45.9794" lon="6.43556">
        <ele>1800</ele>
        <time>2019-01-18T11:12:26Z</time>
      </trkpt>
      <trkpt lat="45.97952" lon="6.43581">
        <ele>1788</ele>
        <time>2019-01-18T11:12:36Z</time>
      </trkpt>
      <trkpt lat="45.97953" lon="6.43595">
        <ele>1786</ele>
        <time>2019-01-18T11:12:39Z</time>
      </trkpt>
      <trkpt lat="45.9795" lon="6.43607">
        <ele>1782</ele>
        <time>2019-01-18T11:12:42Z</time>
      </trkpt>
      <trkpt lat="45.9798" lon="6.43684">
        <ele>1769</ele>
        <time>2019-01-18T11:12:51Z</time>
      </trkpt>
      <trkpt lat="45.97983" lon="6.43693">
        <ele>1769</ele>
        <time>2019-01-18T11:12:52Z</time>
      </trkpt>
      <trkpt lat="45.97987" lon="6.43697">
        <ele>1766</ele>
        <time>2019-01-18T11:12:53Z</time>
      </trkpt>
      <trkpt lat="45.97988" lon="6.43706">
        <ele>1767</ele>
        <time>2019-01-18T11:12:54Z</time>
      </trkpt>
      <trkpt lat="45.97993" lon="6.43725">
        <ele>1762</ele>
        <time>2019-01-18T11:12:56Z</time>
      </trkpt>
      <trkpt lat="45.97996" lon="6.43732">
        <ele>1761</ele>
        <time>2019-01-18T11:12:57Z</time>
      </trkpt>
      <trkpt lat="45.97999" lon="6.43739">
        <ele>1760</ele>
        <time>2019-01-18T11:12:58Z</time>
      </trkpt>
      <trkpt lat="45.98001" lon="6.43745">
        <ele>1759</ele>
        <time>2019-01-18T11:12:59Z</time>
      </trkpt>
      <trkpt lat="45.98005" lon="6.43754">
        <ele>1758</ele>
        <time>2019-01-18T11:13:00Z</time>
      </trkpt>
      <trkpt lat="45.98003" lon="6.43773">
        <ele>1755</ele>
        <time>2019-01-18T11:13:02Z</time>
      </trkpt>
      <trkpt lat="45.98" lon="6.43782">
        <ele>1755</ele>
        <time>2019-01-18T11:13:03Z</time>
      </trkpt>
      <trkpt lat="45.97997" lon="6.43787">
        <ele>1752</ele>
        <time>2019-01-18T11:13:04Z</time>
      </trkpt>
      <trkpt lat="45.97995" lon="6.43799">
        <ele>1753</ele>
        <time>2019-01-18T11:13:06Z</time>
      </trkpt>
      <trkpt lat="45.97995" lon="6.43806">
        <ele>1751</ele>
        <time>2019-01-18T11:13:07Z</time>
      </trkpt>
      <trkpt lat="45.97998" lon="6.43811">
        <ele>1751</ele>
        <time>2019-01-18T11:13:09Z</time>
      </trkpt>
      <trkpt lat="45.98002" lon="6.43818">
        <ele>1763</ele>
        <time>2019-01-18T11:14:59Z</time>
      </trkpt>
      <trkpt lat="45.97999" lon="6.43847">
        <ele>1758</ele>
        <time>2019-01-18T11:15:07Z</time>
      </trkpt>
      <trkpt lat="45.98004" lon="6.43859">
        <ele>1756</ele>
        <time>2019-01-18T11:15:11Z</time>
      </trkpt>
      <trkpt lat="45.97998" lon="6.43875">
        <ele>1752</ele>
        <time>2019-01-18T11:15:16Z</time>
      </trkpt>
      <trkpt lat="45.97988" lon="6.43885">
        <ele>1747</ele>
        <time>2019-01-18T11:15:22Z</time>
      </trkpt>
      <trkpt lat="45.97986" lon="6.43891">
        <ele>1745</ele>
        <time>2019-01-18T11:15:24Z</time>
      </trkpt>
      <trkpt lat="45.97989" lon="6.43899">
        <ele>1742</ele>
        <time>2019-01-18T11:15:26Z</time>
      </trkpt>
      <trkpt lat="45.97994" lon="6.43906">
        <ele>1741</ele>
        <time>2019-01-18T11:15:27Z</time>
      </trkpt>
      <trkpt lat="45.97994" lon="6.43924">
        <ele>1738</ele>
        <time>2019-01-18T11:15:30Z</time>
      </trkpt>
      <trkpt lat="45.97989" lon="6.43929">
        <ele>1733</ele>
        <time>2019-01-18T11:15:33Z</time>
      </trkpt>
      <trkpt lat="45.97995" lon="6.43935">
        <ele>1732</ele>
        <time>2019-01-18T11:15:44Z</time>
      </trkpt>
      <trkpt lat="45.98" lon="6.4394">
        <ele>1730</ele>
        <time>2019-01-18T11:15:46Z</time>
      </trkpt>
      <trkpt lat="45.98011" lon="6.43951">
        <ele>1725</ele>
        <time>2019-01-18T11:15:51Z</time>
      </trkpt>
      <trkpt lat="45.98014" lon="6.43958">
        <ele>1720</ele>
        <time>2019-01-18T11:15:55Z</time>
      </trkpt>
      <trkpt lat="45.98012" lon="6.43971">
        <ele>1717</ele>
        <time>2019-01-18T11:15:59Z</time>
      </trkpt>
      <trkpt lat="45.98011" lon="6.43987">
        <ele>1714</ele>
        <time>2019-01-18T11:16:03Z</time>
      </trkpt>
      <trkpt lat="45.98008" lon="6.43989">
        <ele>1712</ele>
        <time>2019-01-18T11:16:35Z</time>
      </trkpt>
      <trkpt lat="45.98014" lon="6.43998">
        <ele>1710</ele>
        <time>2019-01-18T11:18:46Z</time>
      </trkpt>
      <trkpt lat="45.97997" lon="6.44013">
        <ele>1704</ele>
        <time>2019-01-18T11:18:56Z</time>
      </trkpt>
      <trkpt lat="45.97993" lon="6.44015">
        <ele>1700</ele>
        <time>2019-01-18T11:19:00Z</time>
      </trkpt>
      <trkpt lat="45.97992" lon="6.44034">
        <ele>1693</ele>
        <time>2019-01-18T11:19:29Z</time>
      </trkpt>
      <trkpt lat="45.97999" lon="6.44046">
        <ele>1691</ele>
        <time>2019-01-18T11:19:30Z</time>
      </trkpt>
      <trkpt lat="45.97999" lon="6.44052">
        <ele>1691</ele>
        <time>2019-01-18T11:19:32Z</time>
      </trkpt>
      <trkpt lat="45.98001" lon="6.44068">
        <ele>1691</ele>
        <time>2019-01-18T11:21:21Z</time>
      </trkpt>
      <trkpt lat="45.98" lon="6.44073">
        <ele>1692</ele>
        <time>2019-01-18T11:23:03Z</time>
      </trkpt>
      <trkpt lat="45.97996" lon="6.44068">
        <ele>1691</ele>
        <time>2019-01-18T11:35:47Z</time>
      </trkpt>
      <trkpt lat="45.98" lon="6.44065">
        <ele>1691</ele>
        <time>2019-01-18T11:37:59Z</time>
      </trkpt>
      <trkpt lat="45.97995" lon="6.4406">
        <ele>1692</ele>
        <time>2019-01-18T11:38:18Z</time>
      </trkpt>
      <trkpt lat="45.97989" lon="6.44067">
        <ele>1688</ele>
        <time>2019-01-18T11:39:14Z</time>
      </trkpt>
      <trkpt lat="45.97993" lon="6.44065">
        <ele>1687</ele>
        <time>2019-01-18T11:42:51Z</time>
      </trkpt>
      <trkpt lat="45.97996" lon="6.4405">
        <ele>1685</ele>
        <time>2019-01-18T11:43:56Z</time>
      </trkpt>
      <trkpt lat="45.98008" lon="6.44046">
        <ele>1682</ele>
        <time>2019-01-18T11:44:08Z</time>
      </trkpt>
      <trkpt lat="45.98014" lon="6.44052">
        <ele>1677</ele>
        <time>2019-01-18T11:44:33Z</time>
      </trkpt>
      <trkpt lat="45.98023" lon="6.44061">
        <ele>1674</ele>
        <time>2019-01-18T11:46:03Z</time>
      </trkpt>
      <trkpt lat="45.98023" lon="6.44075">
        <ele>1670</ele>
        <time>2019-01-18T11:46:07Z</time>
      </trkpt>
      <trkpt lat="45.98021" lon="6.44084">
        <ele>1669</ele>
        <time>2019-01-18T11:46:09Z</time>
      </trkpt>
      <trkpt lat="45.98019" lon="6.44093">
        <ele>1666</ele>
        <time>2019-01-18T11:46:11Z</time>
      </trkpt>
      <trkpt lat="45.98024" lon="6.44107">
        <ele>1662</ele>
        <time>2019-01-18T11:46:18Z</time>
      </trkpt>
      <trkpt lat="45.98023" lon="6.44115">
        <ele>1659</ele>
        <time>2019-01-18T11:46:20Z</time>
      </trkpt>
      <trkpt lat="45.98022" lon="6.44124">
        <ele>1657</ele>
        <time>2019-01-18T11:46:22Z</time>
      </trkpt>
      <trkpt lat="45.98016" lon="6.44139">
        <ele>1653</ele>
        <time>2019-01-18T11:46:24Z</time>
      </trkpt>
      <trkpt lat="45.98015" lon="6.44145">
        <ele>1653</ele>
        <time>2019-01-18T11:46:27Z</time>
      </trkpt>
      <trkpt lat="45.98013" lon="6.44155">
        <ele>1652</ele>
        <time>2019-01-18T11:46:29Z</time>
      </trkpt>
      <trkpt lat="45.9801" lon="6.44165">
        <ele>1646</ele>
        <time>2019-01-18T11:46:36Z</time>
      </trkpt>
      <trkpt lat="45.98007" lon="6.44178">
        <ele>1643</ele>
        <time>2019-01-18T11:46:40Z</time>
      </trkpt>
      <trkpt lat="45.98016" lon="6.44179">
        <ele>1641</ele>
        <time>2019-01-18T11:47:26Z</time>
      </trkpt>
      <trkpt lat="45.98023" lon="6.44192">
        <ele>1637</ele>
        <time>2019-01-18T11:47:29Z</time>
      </trkpt>
      <trkpt lat="45.98025" lon="6.44197">
        <ele>1637</ele>
        <time>2019-01-18T11:47:30Z</time>
      </trkpt>
      <trkpt lat="45.98041" lon="6.44222">
        <ele>1630</ele>
        <time>2019-01-18T11:47:37Z</time>
      </trkpt>
      <trkpt lat="45.98049" lon="6.44228">
        <ele>1629</ele>
        <time>2019-01-18T11:47:40Z</time>
      </trkpt>
      <trkpt lat="45.98043" lon="6.44234">
        <ele>1626</ele>
        <time>2019-01-18T11:47:52Z</time>
      </trkpt>
      <trkpt lat="45.98043" lon="6.4425">
        <ele>1622</ele>
        <time>2019-01-18T11:47:54Z</time>
      </trkpt>
      <trkpt lat="45.98043" lon="6.44258">
        <ele>1622</ele>
        <time>2019-01-18T11:47:55Z</time>
      </trkpt>
      <trkpt lat="45.98043" lon="6.44266">
        <ele>1620</ele>
        <time>2019-01-18T11:47:56Z</time>
      </trkpt>
      <trkpt lat="45.98043" lon="6.44273">
        <ele>1619</ele>
        <time>2019-01-18T11:47:57Z</time>
      </trkpt>
      <trkpt lat="45.98039" lon="6.4428">
        <ele>1617</ele>
        <time>2019-01-18T11:47:59Z</time>
      </trkpt>
      <trkpt lat="45.98045" lon="6.44331">
        <ele>1606</ele>
        <time>2019-01-18T11:48:46Z</time>
      </trkpt>
      <trkpt lat="45.98048" lon="6.44363">
        <ele>1600</ele>
        <time>2019-01-18T11:48:50Z</time>
      </trkpt>
      <trkpt lat="45.98047" lon="6.44373">
        <ele>1598</ele>
        <time>2019-01-18T11:48:52Z</time>
      </trkpt>
      <trkpt lat="45.98042" lon="6.44386">
        <ele>1593</ele>
        <time>2019-01-18T11:48:58Z</time>
      </trkpt>
      <trkpt lat="45.98041" lon="6.44393">
        <ele>1591</ele>
        <time>2019-01-18T11:48:59Z</time>
      </trkpt>
      <trkpt lat="45.9804" lon="6.44401">
        <ele>1590</ele>
        <time>2019-01-18T11:49:00Z</time>
      </trkpt>
      <trkpt lat="45.98035" lon="6.44422">
        <ele>1585</ele>
        <time>2019-01-18T11:49:04Z</time>
      </trkpt>
      <trkpt lat="45.98032" lon="6.44426">
        <ele>1582</ele>
        <time>2019-01-18T11:49:09Z</time>
      </trkpt>
      <trkpt lat="45.98029" lon="6.44434">
        <ele>1588</ele>
        <time>2019-01-18T11:50:09Z</time>
      </trkpt>
      <trkpt lat="45.98022" lon="6.44451">
        <ele>1584</ele>
        <time>2019-01-18T11:50:13Z</time>
      </trkpt>
      <trkpt lat="45.98018" lon="6.44454">
        <ele>1584</ele>
        <time>2019-01-18T11:50:15Z</time>
      </trkpt>
      <trkpt lat="45.98005" lon="6.44456">
        <ele>1578</ele>
        <time>2019-01-18T11:50:23Z</time>
      </trkpt>
      <trkpt lat="45.98" lon="6.44455">
        <ele>1576</ele>
        <time>2019-01-18T11:50:25Z</time>
      </trkpt>
      <trkpt lat="45.97995" lon="6.44454">
        <ele>1574</ele>
        <time>2019-01-18T11:50:27Z</time>
      </trkpt>
      <trkpt lat="45.97989" lon="6.4446">
        <ele>1570</ele>
        <time>2019-01-18T11:50:29Z</time>
      </trkpt>
      <trkpt lat="45.97986" lon="6.4447">
        <ele>1568</ele>
        <time>2019-01-18T11:50:30Z</time>
      </trkpt>
      <trkpt lat="45.97978" lon="6.44468">
        <ele>1564</ele>
        <time>2019-01-18T11:50:32Z</time>
      </trkpt>
      <trkpt lat="45.97974" lon="6.44466">
        <ele>1563</ele>
        <time>2019-01-18T11:50:34Z</time>
      </trkpt>
      <trkpt lat="45.97971" lon="6.44473">
        <ele>1562</ele>
        <time>2019-01-18T11:50:36Z</time>
      </trkpt>
      <trkpt lat="45.97968" lon="6.44481">
        <ele>1562</ele>
        <time>2019-01-18T11:50:37Z</time>
      </trkpt>
      <trkpt lat="45.9795" lon="6.44514">
        <ele>1558</ele>
        <time>2019-01-18T11:50:48Z</time>
      </trkpt>
      <trkpt lat="45.97945" lon="6.44523">
        <ele>1558</ele>
        <time>2019-01-18T11:50:52Z</time>
      </trkpt>
      <trkpt lat="45.97931" lon="6.44543">
        <ele>1555</ele>
        <time>2019-01-18T11:50:59Z</time>
      </trkpt>
      <trkpt lat="45.97925" lon="6.4455">
        <ele>1554</ele>
        <time>2019-01-18T11:51:03Z</time>
      </trkpt>
      <trkpt lat="45.97893" lon="6.44578">
        <ele>1547</ele>
        <time>2019-01-18T11:51:13Z</time>
      </trkpt>
      <trkpt lat="45.97889" lon="6.44581">
        <ele>1548</ele>
        <time>2019-01-18T11:51:14Z</time>
      </trkpt>
      <trkpt lat="45.97885" lon="6.44584">
        <ele>1549</ele>
        <time>2019-01-18T11:51:18Z</time>
      </trkpt>
      <trkpt lat="45.97879" lon="6.44588">
        <ele>1548</ele>
        <time>2019-01-18T11:52:06Z</time>
      </trkpt>
      <trkpt lat="45.9787" lon="6.44592">
        <ele>1547</ele>
        <time>2019-01-18T11:52:22Z</time>
      </trkpt>
      <trkpt lat="45.97863" lon="6.44594">
        <ele>1543</ele>
        <time>2019-01-18T11:52:24Z</time>
      </trkpt>
      <trkpt lat="45.97832" lon="6.44615">
        <ele>1532</ele>
        <time>2019-01-18T11:52:31Z</time>
      </trkpt>
      <trkpt lat="45.97831" lon="6.44622">
        <ele>1531</ele>
        <time>2019-01-18T11:52:32Z</time>
      </trkpt>
      <trkpt lat="45.97828" lon="6.4463">
        <ele>1531</ele>
        <time>2019-01-18T11:52:34Z</time>
      </trkpt>
      <trkpt lat="45.97826" lon="6.44636">
        <ele>1531</ele>
        <time>2019-01-18T11:52:35Z</time>
      </trkpt>
      <trkpt lat="45.97821" lon="6.44639">
        <ele>1529</ele>
        <time>2019-01-18T11:52:37Z</time>
      </trkpt>
      <trkpt lat="45.97807" lon="6.44646">
        <ele>1528</ele>
        <time>2019-01-18T11:52:41Z</time>
      </trkpt>
      <trkpt lat="45.97802" lon="6.44648">
        <ele>1526</ele>
        <time>2019-01-18T11:52:42Z</time>
      </trkpt>
      <trkpt lat="45.97799" lon="6.44654">
        <ele>1525</ele>
        <time>2019-01-18T11:52:43Z</time>
      </trkpt>
      <trkpt lat="45.97785" lon="6.44665">
        <ele>1519</ele>
        <time>2019-01-18T11:52:46Z</time>
      </trkpt>
      <trkpt lat="45.9778" lon="6.4467">
        <ele>1519</ele>
        <time>2019-01-18T11:52:47Z</time>
      </trkpt>
      <trkpt lat="45.97775" lon="6.44673">
        <ele>1517</ele>
        <time>2019-01-18T11:52:48Z</time>
      </trkpt>
      <trkpt lat="45.97771" lon="6.44679">
        <ele>1518</ele>
        <time>2019-01-18T11:52:49Z</time>
      </trkpt>
      <trkpt lat="45.97766" lon="6.44682">
        <ele>1516</ele>
        <time>2019-01-18T11:52:50Z</time>
      </trkpt>
      <trkpt lat="45.97761" lon="6.44684">
        <ele>1517</ele>
        <time>2019-01-18T11:52:51Z</time>
      </trkpt>
      <trkpt lat="45.97756" lon="6.44688">
        <ele>1516</ele>
        <time>2019-01-18T11:52:52Z</time>
      </trkpt>
      <trkpt lat="45.97751" lon="6.44692">
        <ele>1517</ele>
        <time>2019-01-18T11:52:53Z</time>
      </trkpt>
      <trkpt lat="45.97743" lon="6.44699">
        <ele>1514</ele>
        <time>2019-01-18T11:52:55Z</time>
      </trkpt>
      <trkpt lat="45.97742" lon="6.44705">
        <ele>1515</ele>
        <time>2019-01-18T11:52:57Z</time>
      </trkpt>
      <trkpt lat="45.97738" lon="6.44731">
        <ele>1508</ele>
        <time>2019-01-18T11:53:04Z</time>
      </trkpt>
      <trkpt lat="45.97736" lon="6.44739">
        <ele>1508</ele>
        <time>2019-01-18T11:53:05Z</time>
      </trkpt>
      <trkpt lat="45.97728" lon="6.4475">
        <ele>1506</ele>
        <time>2019-01-18T11:53:07Z</time>
      </trkpt>
      <trkpt lat="45.97728" lon="6.44778">
        <ele>1502</ele>
        <time>2019-01-18T11:53:11Z</time>
      </trkpt>
      <trkpt lat="45.97728" lon="6.44786">
        <ele>1502</ele>
        <time>2019-01-18T11:53:12Z</time>
      </trkpt>
      <trkpt lat="45.97729" lon="6.44793">
        <ele>1500</ele>
        <time>2019-01-18T11:53:13Z</time>
      </trkpt>
      <trkpt lat="45.97727" lon="6.44805">
        <ele>1498</ele>
        <time>2019-01-18T11:53:16Z</time>
      </trkpt>
      <trkpt lat="45.97727" lon="6.44818">
        <ele>1497</ele>
        <time>2019-01-18T11:53:18Z</time>
      </trkpt>
      <trkpt lat="45.97724" lon="6.44828">
        <ele>1495</ele>
        <time>2019-01-18T11:53:20Z</time>
      </trkpt>
      <trkpt lat="45.9772" lon="6.44833">
        <ele>1494</ele>
        <time>2019-01-18T11:53:22Z</time>
      </trkpt>
      <trkpt lat="45.97728" lon="6.44845">
        <ele>1487</ele>
        <time>2019-01-18T11:54:00Z</time>
      </trkpt>
      <trkpt lat="45.97731" lon="6.4485">
        <ele>1488</ele>
        <time>2019-01-18T11:54:02Z</time>
      </trkpt>
      <trkpt lat="45.97732" lon="6.44857">
        <ele>1487</ele>
        <time>2019-01-18T11:54:11Z</time>
      </trkpt>
      <trkpt lat="45.97729" lon="6.44864">
        <ele>1487</ele>
        <time>2019-01-18T11:54:18Z</time>
      </trkpt>
      <trkpt lat="45.97727" lon="6.44872">
        <ele>1486</ele>
        <time>2019-01-18T11:54:21Z</time>
      </trkpt>
      <trkpt lat="45.97726" lon="6.4488">
        <ele>1485</ele>
        <time>2019-01-18T11:54:25Z</time>
      </trkpt>
      <trkpt lat="45.97726" lon="6.44894">
        <ele>1484</ele>
        <time>2019-01-18T11:54:39Z</time>
      </trkpt>
      <trkpt lat="45.97725" lon="6.44902">
        <ele>1484</ele>
        <time>2019-01-18T11:54:42Z</time>
      </trkpt>
      <trkpt lat="45.97719" lon="6.44917">
        <ele>1481</ele>
        <time>2019-01-18T11:54:48Z</time>
      </trkpt>
      <trkpt lat="45.97712" lon="6.44929">
        <ele>1482</ele>
        <time>2019-01-18T11:54:59Z</time>
      </trkpt>
      <trkpt lat="45.97713" lon="6.44941">
        <ele>1482</ele>
        <time>2019-01-18T11:55:06Z</time>
      </trkpt>
      <trkpt lat="45.97708" lon="6.44954">
        <ele>1479</ele>
        <time>2019-01-18T11:55:10Z</time>
      </trkpt>
      <trkpt lat="45.97704" lon="6.4496">
        <ele>1479</ele>
        <time>2019-01-18T11:55:12Z</time>
      </trkpt>
      <trkpt lat="45.97687" lon="6.44994">
        <ele>1476</ele>
        <time>2019-01-18T11:55:21Z</time>
      </trkpt>
      <trkpt lat="45.97682" lon="6.45001">
        <ele>1476</ele>
        <time>2019-01-18T11:55:23Z</time>
      </trkpt>
      <trkpt lat="45.97679" lon="6.45006">
        <ele>1475</ele>
        <time>2019-01-18T11:55:27Z</time>
      </trkpt>
      <trkpt lat="45.97676" lon="6.45013">
        <ele>1475</ele>
        <time>2019-01-18T11:55:30Z</time>
      </trkpt>
      <trkpt lat="45.97674" lon="6.45018">
        <ele>1474</ele>
        <time>2019-01-18T11:55:35Z</time>
      </trkpt>
      <trkpt lat="45.9767" lon="6.45056">
        <ele>1469</ele>
        <time>2019-01-18T11:57:13Z</time>
      </trkpt>
      <trkpt lat="45.97669" lon="6.45069">
        <ele>1467</ele>
        <time>2019-01-18T11:57:15Z</time>
      </trkpt>
      <trkpt lat="45.9767" lon="6.45085">
        <ele>1466</ele>
        <time>2019-01-18T11:57:17Z</time>
      </trkpt>
      <trkpt lat="45.9767" lon="6.45093">
        <ele>1464</ele>
        <time>2019-01-18T11:57:19Z</time>
      </trkpt>
      <trkpt lat="45.97669" lon="6.451">
        <ele>1464</ele>
        <time>2019-01-18T11:57:20Z</time>
      </trkpt>
      <trkpt lat="45.97666" lon="6.45108">
        <ele>1463</ele>
        <time>2019-01-18T11:57:21Z</time>
      </trkpt>
      <trkpt lat="45.97663" lon="6.45116">
        <ele>1461</ele>
        <time>2019-01-18T11:57:23Z</time>
      </trkpt>
      <trkpt lat="45.97662" lon="6.45123">
        <ele>1460</ele>
        <time>2019-01-18T11:57:24Z</time>
      </trkpt>
      <trkpt lat="45.97661" lon="6.4513">
        <ele>1460</ele>
        <time>2019-01-18T11:57:25Z</time>
      </trkpt>
      <trkpt lat="45.97658" lon="6.45152">
        <ele>1458</ele>
        <time>2019-01-18T11:57:28Z</time>
      </trkpt>
      <trkpt lat="45.97661" lon="6.45161">
        <ele>1458</ele>
        <time>2019-01-18T11:57:30Z</time>
      </trkpt>
      <trkpt lat="45.97658" lon="6.45167">
        <ele>1455</ele>
        <time>2019-01-18T11:57:31Z</time>
      </trkpt>
      <trkpt lat="45.97656" lon="6.45175">
        <ele>1454</ele>
        <time>2019-01-18T11:57:32Z</time>
      </trkpt>
      <trkpt lat="45.97655" lon="6.45185">
        <ele>1452</ele>
        <time>2019-01-18T11:57:39Z</time>
      </trkpt>
      <trkpt lat="45.97679" lon="6.45244">
        <ele>1445</ele>
        <time>2019-01-18T11:58:33Z</time>
      </trkpt>
      <trkpt lat="45.97685" lon="6.45261">
        <ele>1443</ele>
        <time>2019-01-18T11:58:37Z</time>
      </trkpt>
      <trkpt lat="45.97687" lon="6.45267">
        <ele>1443</ele>
        <time>2019-01-18T11:58:39Z</time>
      </trkpt>
      <trkpt lat="45.9769" lon="6.45273">
        <ele>1443</ele>
        <time>2019-01-18T11:58:41Z</time>
      </trkpt>
      <trkpt lat="45.97692" lon="6.45279">
        <ele>1442</ele>
        <time>2019-01-18T11:58:43Z</time>
      </trkpt>
      <trkpt lat="45.97697" lon="6.45296">
        <ele>1441</ele>
        <time>2019-01-18T11:58:47Z</time>
      </trkpt>
      <trkpt lat="45.97696" lon="6.45304">
        <ele>1437</ele>
        <time>2019-01-18T11:58:56Z</time>
      </trkpt>
      <trkpt lat="45.97694" lon="6.45309">
        <ele>1433</ele>
        <time>2019-01-18T11:59:01Z</time>
      </trkpt>
      <trkpt lat="45.97692" lon="6.45316">
        <ele>1432</ele>
        <time>2019-01-18T11:59:03Z</time>
      </trkpt>
      <trkpt lat="45.97685" lon="6.45318">
        <ele>1430</ele>
        <time>2019-01-18T11:59:05Z</time>
      </trkpt>
      <trkpt lat="45.9768" lon="6.45319">
        <ele>1428</ele>
        <time>2019-01-18T11:59:07Z</time>
      </trkpt>
      <trkpt lat="45.97675" lon="6.45324">
        <ele>1425</ele>
        <time>2019-01-18T11:59:09Z</time>
      </trkpt>
      <trkpt lat="45.97667" lon="6.45331">
        <ele>1421</ele>
        <time>2019-01-18T11:59:11Z</time>
      </trkpt>
      <trkpt lat="45.9766" lon="6.45338">
        <ele>1419</ele>
        <time>2019-01-18T11:59:13Z</time>
      </trkpt>
      <trkpt lat="45.97653" lon="6.45343">
        <ele>1419</ele>
        <time>2019-01-18T11:59:15Z</time>
      </trkpt>
      <trkpt lat="45.97647" lon="6.45344">
        <ele>1419</ele>
        <time>2019-01-18T11:59:17Z</time>
      </trkpt>
      <trkpt lat="45.97643" lon="6.45348">
        <ele>1421</ele>
        <time>2019-01-18T12:01:02Z</time>
      </trkpt>
      <trkpt lat="45.97622" lon="6.45395">
        <ele>1403</ele>
        <time>2019-01-18T12:01:17Z</time>
      </trkpt>
      <trkpt lat="45.97617" lon="6.45401">
        <ele>1399</ele>
        <time>2019-01-18T12:01:20Z</time>
      </trkpt>
      <trkpt lat="45.97612" lon="6.45399">
        <ele>1398</ele>
        <time>2019-01-18T12:01:22Z</time>
      </trkpt>
      <trkpt lat="45.97607" lon="6.45397">
        <ele>1398</ele>
        <time>2019-01-18T12:01:24Z</time>
      </trkpt>
      <trkpt lat="45.976" lon="6.45405">
        <ele>1392</ele>
        <time>2019-01-18T12:01:30Z</time>
      </trkpt>
      <trkpt lat="45.97596" lon="6.4541">
        <ele>1390</ele>
        <time>2019-01-18T12:01:32Z</time>
      </trkpt>
      <trkpt lat="45.976" lon="6.45413">
        <ele>1389</ele>
        <time>2019-01-18T12:01:47Z</time>
      </trkpt>
      <trkpt lat="45.97602" lon="6.4543">
        <ele>1387</ele>
        <time>2019-01-18T12:01:56Z</time>
      </trkpt>
      <trkpt lat="45.97604" lon="6.45437">
        <ele>1387</ele>
        <time>2019-01-18T12:01:58Z</time>
      </trkpt>
      <trkpt lat="45.97608" lon="6.45444">
        <ele>1385</ele>
        <time>2019-01-18T12:02:01Z</time>
      </trkpt>
      <trkpt lat="45.9761" lon="6.45453">
        <ele>1384</ele>
        <time>2019-01-18T12:02:03Z</time>
      </trkpt>
      <trkpt lat="45.97608" lon="6.45463">
        <ele>1382</ele>
        <time>2019-01-18T12:02:05Z</time>
      </trkpt>
      <trkpt lat="45.97608" lon="6.45471">
        <ele>1381</ele>
        <time>2019-01-18T12:02:07Z</time>
      </trkpt>
      <trkpt lat="45.97603" lon="6.45486">
        <ele>1379</ele>
        <time>2019-01-18T12:02:11Z</time>
      </trkpt>
      <trkpt lat="45.97606" lon="6.455">
        <ele>1377</ele>
        <time>2019-01-18T12:02:15Z</time>
      </trkpt>
      <trkpt lat="45.97617" lon="6.4552">
        <ele>1371</ele>
        <time>2019-01-18T12:02:22Z</time>
      </trkpt>
      <trkpt lat="45.97619" lon="6.45529">
        <ele>1370</ele>
        <time>2019-01-18T12:02:24Z</time>
      </trkpt>
      <trkpt lat="45.97619" lon="6.45538">
        <ele>1369</ele>
        <time>2019-01-18T12:02:26Z</time>
      </trkpt>
      <trkpt lat="45.97618" lon="6.45545">
        <ele>1368</ele>
        <time>2019-01-18T12:02:28Z</time>
      </trkpt>
      <trkpt lat="45.97615" lon="6.45553">
        <ele>1368</ele>
        <time>2019-01-18T12:02:33Z</time>
      </trkpt>
      <trkpt lat="45.97607" lon="6.45557">
        <ele>1366</ele>
        <time>2019-01-18T12:02:55Z</time>
      </trkpt>
      <trkpt lat="45.97603" lon="6.4556">
        <ele>1366</ele>
        <time>2019-01-18T12:03:52Z</time>
      </trkpt>
    </trkseg>
  </trk>
</gpx>